<?xml version="1.0" encoding="UTF-8" standalone="no" ?>
<gpx xmlns="http://www.topografix.com/GPX/1/1" xmlns:xsi="http://www.w3.org/2001/XMLSchema-instance" xsi:schemaLocation="http://www.topografix.com/GPX/1/1 http://www.topografix.com/GPX/1/1/gpx.xsd" version="1.1" creator="VisuGPX - https://www.visugpx.com">
  <metadata>
    <name>Montcalm - Estats</name>
    <desc><![CDATA[Le Montcalm (3077m) France, Pique d\'Estats (3143m) et Pic Verdaguer]]></desc>
  </metadata>
  <trk>
    <name><![CDATA[Montcalm: 05 SEPT 2015 12:57]]></name>
    <trkseg>
      <trkpt lat="42.71013" lon="1.42578">
        <ele>1170.54</ele>
        <time>2015-09-05T10:57:17Z</time>
      </trkpt>
      <trkpt lat="42.71014" lon="1.42577">
        <ele>1165.74</ele>
        <time>2015-09-05T10:57:34Z</time>
      </trkpt>
      <trkpt lat="42.71013" lon="1.42581">
        <ele>1165.26</ele>
        <time>2015-09-05T10:58:01Z</time>
      </trkpt>
      <trkpt lat="42.71019" lon="1.42587">
        <ele>1166.22</ele>
        <time>2015-09-05T10:58:25Z</time>
      </trkpt>
      <trkpt lat="42.71016" lon="1.42585">
        <ele>1163.33</ele>
        <time>2015-09-05T10:58:47Z</time>
      </trkpt>
      <trkpt lat="42.71016" lon="1.42582">
        <ele>1160.45</ele>
        <time>2015-09-05T10:59:09Z</time>
      </trkpt>
      <trkpt lat="42.71028" lon="1.42578">
        <ele>1158.53</ele>
        <time>2015-09-05T10:59:27Z</time>
      </trkpt>
      <trkpt lat="42.71032" lon="1.4258">
        <ele>1156.12</ele>
        <time>2015-09-05T10:59:45Z</time>
      </trkpt>
      <trkpt lat="42.7103" lon="1.42579">
        <ele>1157.08</ele>
        <time>2015-09-05T11:00:03Z</time>
      </trkpt>
      <trkpt lat="42.71027" lon="1.42582">
        <ele>1160.45</ele>
        <time>2015-09-05T11:00:19Z</time>
      </trkpt>
      <trkpt lat="42.71025" lon="1.42583">
        <ele>1159.97</ele>
        <time>2015-09-05T11:00:35Z</time>
      </trkpt>
      <trkpt lat="42.71026" lon="1.42583">
        <ele>1160.45</ele>
        <time>2015-09-05T11:00:53Z</time>
      </trkpt>
      <trkpt lat="42.71027" lon="1.42582">
        <ele>1160.45</ele>
        <time>2015-09-05T11:01:19Z</time>
      </trkpt>
      <trkpt lat="42.71026" lon="1.42582">
        <ele>1160.45</ele>
        <time>2015-09-05T11:01:41Z</time>
      </trkpt>
      <trkpt lat="42.71025" lon="1.42582">
        <ele>1160.45</ele>
        <time>2015-09-05T11:02:04Z</time>
      </trkpt>
      <trkpt lat="42.71025" lon="1.42581">
        <ele>1159.97</ele>
        <time>2015-09-05T11:02:29Z</time>
      </trkpt>
      <trkpt lat="42.71026" lon="1.42581">
        <ele>1159.01</ele>
        <time>2015-09-05T11:02:50Z</time>
      </trkpt>
      <trkpt lat="42.71027" lon="1.42582">
        <ele>1159.01</ele>
        <time>2015-09-05T11:03:14Z</time>
      </trkpt>
      <trkpt lat="42.71028" lon="1.42581">
        <ele>1159.97</ele>
        <time>2015-09-05T11:03:43Z</time>
      </trkpt>
      <trkpt lat="42.71028" lon="1.42582">
        <ele>1159.97</ele>
        <time>2015-09-05T11:04:07Z</time>
      </trkpt>
      <trkpt lat="42.71028" lon="1.42581">
        <ele>1159.49</ele>
        <time>2015-09-05T11:04:26Z</time>
      </trkpt>
      <trkpt lat="42.71027" lon="1.42583">
        <ele>1159.01</ele>
        <time>2015-09-05T11:04:54Z</time>
      </trkpt>
      <trkpt lat="42.71028" lon="1.42582">
        <ele>1159.01</ele>
        <time>2015-09-05T11:05:17Z</time>
      </trkpt>
      <trkpt lat="42.71027" lon="1.42583">
        <ele>1159.01</ele>
        <time>2015-09-05T11:05:45Z</time>
      </trkpt>
      <trkpt lat="42.71026" lon="1.42583">
        <ele>1158.53</ele>
        <time>2015-09-05T11:06:14Z</time>
      </trkpt>
      <trkpt lat="42.71025" lon="1.42582">
        <ele>1158.53</ele>
        <time>2015-09-05T11:06:39Z</time>
      </trkpt>
      <trkpt lat="42.71025" lon="1.42583">
        <ele>1159.01</ele>
        <time>2015-09-05T11:07:07Z</time>
      </trkpt>
      <trkpt lat="42.71021" lon="1.42576">
        <ele>1161.89</ele>
        <time>2015-09-05T11:07:21Z</time>
      </trkpt>
      <trkpt lat="42.71022" lon="1.42572">
        <ele>1163.33</ele>
        <time>2015-09-05T11:07:25Z</time>
      </trkpt>
      <trkpt lat="42.71021" lon="1.4256">
        <ele>1163.33</ele>
        <time>2015-09-05T11:07:37Z</time>
      </trkpt>
      <trkpt lat="42.71022" lon="1.42562">
        <ele>1162.85</ele>
        <time>2015-09-05T11:07:49Z</time>
      </trkpt>
      <trkpt lat="42.71029" lon="1.42566">
        <ele>1166.22</ele>
        <time>2015-09-05T11:08:04Z</time>
      </trkpt>
      <trkpt lat="42.71034" lon="1.42539">
        <ele>1170.54</ele>
        <time>2015-09-05T11:08:21Z</time>
      </trkpt>
      <trkpt lat="42.71042" lon="1.42529">
        <ele>1176.79</ele>
        <time>2015-09-05T11:08:38Z</time>
      </trkpt>
      <trkpt lat="42.71039" lon="1.42509">
        <ele>1178.23</ele>
        <time>2015-09-05T11:08:56Z</time>
      </trkpt>
      <trkpt lat="42.71035" lon="1.42501">
        <ele>1177.27</ele>
        <time>2015-09-05T11:09:00Z</time>
      </trkpt>
      <trkpt lat="42.71023" lon="1.42483">
        <ele>1174.39</ele>
        <time>2015-09-05T11:09:14Z</time>
      </trkpt>
      <trkpt lat="42.7102" lon="1.42479">
        <ele>1173.91</ele>
        <time>2015-09-05T11:09:18Z</time>
      </trkpt>
      <trkpt lat="42.7101" lon="1.42462">
        <ele>1175.35</ele>
        <time>2015-09-05T11:09:33Z</time>
      </trkpt>
      <trkpt lat="42.71007" lon="1.42447">
        <ele>1176.79</ele>
        <time>2015-09-05T11:09:45Z</time>
      </trkpt>
      <trkpt lat="42.71002" lon="1.4242">
        <ele>1182.56</ele>
        <time>2015-09-05T11:10:03Z</time>
      </trkpt>
      <trkpt lat="42.70995" lon="1.42386">
        <ele>1185.44</ele>
        <time>2015-09-05T11:10:24Z</time>
      </trkpt>
      <trkpt lat="42.70989" lon="1.42366">
        <ele>1183.52</ele>
        <time>2015-09-05T11:10:40Z</time>
      </trkpt>
      <trkpt lat="42.70985" lon="1.42358">
        <ele>1184</ele>
        <time>2015-09-05T11:10:47Z</time>
      </trkpt>
      <trkpt lat="42.70975" lon="1.4234">
        <ele>1183.04</ele>
        <time>2015-09-05T11:10:59Z</time>
      </trkpt>
      <trkpt lat="42.70967" lon="1.42304">
        <ele>1179.67</ele>
        <time>2015-09-05T11:11:16Z</time>
      </trkpt>
      <trkpt lat="42.70968" lon="1.42287">
        <ele>1179.67</ele>
        <time>2015-09-05T11:11:27Z</time>
      </trkpt>
      <trkpt lat="42.70965" lon="1.42266">
        <ele>1179.19</ele>
        <time>2015-09-05T11:11:44Z</time>
      </trkpt>
      <trkpt lat="42.70956" lon="1.42247">
        <ele>1178.23</ele>
        <time>2015-09-05T11:11:56Z</time>
      </trkpt>
      <trkpt lat="42.70955" lon="1.42227">
        <ele>1178.71</ele>
        <time>2015-09-05T11:12:09Z</time>
      </trkpt>
      <trkpt lat="42.70958" lon="1.422">
        <ele>1177.75</ele>
        <time>2015-09-05T11:12:29Z</time>
      </trkpt>
      <trkpt lat="42.70952" lon="1.42168">
        <ele>1176.31</ele>
        <time>2015-09-05T11:12:50Z</time>
      </trkpt>
      <trkpt lat="42.70945" lon="1.4215">
        <ele>1173.43</ele>
        <time>2015-09-05T11:13:07Z</time>
      </trkpt>
      <trkpt lat="42.7094" lon="1.4212">
        <ele>1171.98</ele>
        <time>2015-09-05T11:13:30Z</time>
      </trkpt>
      <trkpt lat="42.70933" lon="1.42099">
        <ele>1171.98</ele>
        <time>2015-09-05T11:13:54Z</time>
      </trkpt>
      <trkpt lat="42.70929" lon="1.42081">
        <ele>1173.91</ele>
        <time>2015-09-05T11:14:15Z</time>
      </trkpt>
      <trkpt lat="42.70923" lon="1.42065">
        <ele>1176.79</ele>
        <time>2015-09-05T11:14:32Z</time>
      </trkpt>
      <trkpt lat="42.7092" lon="1.42036">
        <ele>1185.92</ele>
        <time>2015-09-05T11:14:52Z</time>
      </trkpt>
      <trkpt lat="42.7092" lon="1.42006">
        <ele>1189.29</ele>
        <time>2015-09-05T11:15:10Z</time>
      </trkpt>
      <trkpt lat="42.70921" lon="1.41988">
        <ele>1189.77</ele>
        <time>2015-09-05T11:15:30Z</time>
      </trkpt>
      <trkpt lat="42.70927" lon="1.41971">
        <ele>1189.77</ele>
        <time>2015-09-05T11:15:45Z</time>
      </trkpt>
      <trkpt lat="42.7093" lon="1.41964">
        <ele>1190.25</ele>
        <time>2015-09-05T11:15:51Z</time>
      </trkpt>
      <trkpt lat="42.70935" lon="1.41943">
        <ele>1191.21</ele>
        <time>2015-09-05T11:16:07Z</time>
      </trkpt>
      <trkpt lat="42.70932" lon="1.4193">
        <ele>1191.69</ele>
        <time>2015-09-05T11:16:17Z</time>
      </trkpt>
      <trkpt lat="42.70935" lon="1.41901">
        <ele>1192.65</ele>
        <time>2015-09-05T11:16:36Z</time>
      </trkpt>
      <trkpt lat="42.70933" lon="1.41881">
        <ele>1193.61</ele>
        <time>2015-09-05T11:16:51Z</time>
      </trkpt>
      <trkpt lat="42.70933" lon="1.41864">
        <ele>1194.09</ele>
        <time>2015-09-05T11:17:03Z</time>
      </trkpt>
      <trkpt lat="42.70935" lon="1.4186">
        <ele>1194.09</ele>
        <time>2015-09-05T11:17:06Z</time>
      </trkpt>
      <trkpt lat="42.7094" lon="1.41846">
        <ele>1195.06</ele>
        <time>2015-09-05T11:17:20Z</time>
      </trkpt>
      <trkpt lat="42.70942" lon="1.41827">
        <ele>1198.42</ele>
        <time>2015-09-05T11:17:34Z</time>
      </trkpt>
      <trkpt lat="42.70939" lon="1.41811">
        <ele>1198.9</ele>
        <time>2015-09-05T11:17:49Z</time>
      </trkpt>
      <trkpt lat="42.70936" lon="1.41796">
        <ele>1197.46</ele>
        <time>2015-09-05T11:18:03Z</time>
      </trkpt>
      <trkpt lat="42.70923" lon="1.41773">
        <ele>1198.9</ele>
        <time>2015-09-05T11:18:21Z</time>
      </trkpt>
      <trkpt lat="42.70916" lon="1.41754">
        <ele>1200.34</ele>
        <time>2015-09-05T11:18:36Z</time>
      </trkpt>
      <trkpt lat="42.70915" lon="1.41741">
        <ele>1202.27</ele>
        <time>2015-09-05T11:18:55Z</time>
      </trkpt>
      <trkpt lat="42.70907" lon="1.41725">
        <ele>1204.67</ele>
        <time>2015-09-05T11:19:11Z</time>
      </trkpt>
      <trkpt lat="42.709" lon="1.41704">
        <ele>1204.19</ele>
        <time>2015-09-05T11:19:30Z</time>
      </trkpt>
      <trkpt lat="42.70901" lon="1.41697">
        <ele>1205.15</ele>
        <time>2015-09-05T11:19:37Z</time>
      </trkpt>
      <trkpt lat="42.70899" lon="1.41684">
        <ele>1207.55</ele>
        <time>2015-09-05T11:19:46Z</time>
      </trkpt>
      <trkpt lat="42.70899" lon="1.41665">
        <ele>1210.44</ele>
        <time>2015-09-05T11:20:00Z</time>
      </trkpt>
      <trkpt lat="42.70895" lon="1.4165">
        <ele>1210.92</ele>
        <time>2015-09-05T11:20:14Z</time>
      </trkpt>
      <trkpt lat="42.70895" lon="1.41629">
        <ele>1212.36</ele>
        <time>2015-09-05T11:20:30Z</time>
      </trkpt>
      <trkpt lat="42.70891" lon="1.41616">
        <ele>1212.84</ele>
        <time>2015-09-05T11:20:40Z</time>
      </trkpt>
      <trkpt lat="42.7089" lon="1.41595">
        <ele>1213.8</ele>
        <time>2015-09-05T11:20:56Z</time>
      </trkpt>
      <trkpt lat="42.7089" lon="1.41588">
        <ele>1213.32</ele>
        <time>2015-09-05T11:21:04Z</time>
      </trkpt>
      <trkpt lat="42.70891" lon="1.41569">
        <ele>1215.72</ele>
        <time>2015-09-05T11:21:20Z</time>
      </trkpt>
      <trkpt lat="42.70894" lon="1.41557">
        <ele>1221.01</ele>
        <time>2015-09-05T11:21:37Z</time>
      </trkpt>
      <trkpt lat="42.70894" lon="1.41541">
        <ele>1224.38</ele>
        <time>2015-09-05T11:21:54Z</time>
      </trkpt>
      <trkpt lat="42.7089" lon="1.41531">
        <ele>1228.7</ele>
        <time>2015-09-05T11:22:08Z</time>
      </trkpt>
      <trkpt lat="42.70882" lon="1.41526">
        <ele>1233.03</ele>
        <time>2015-09-05T11:22:25Z</time>
      </trkpt>
      <trkpt lat="42.70875" lon="1.41523">
        <ele>1235.43</ele>
        <time>2015-09-05T11:22:46Z</time>
      </trkpt>
      <trkpt lat="42.70856" lon="1.41526">
        <ele>1238.8</ele>
        <time>2015-09-05T11:23:03Z</time>
      </trkpt>
      <trkpt lat="42.7085" lon="1.4153">
        <ele>1245.04</ele>
        <time>2015-09-05T11:23:18Z</time>
      </trkpt>
      <trkpt lat="42.70849" lon="1.41531">
        <ele>1247.45</ele>
        <time>2015-09-05T11:23:36Z</time>
      </trkpt>
      <trkpt lat="42.70844" lon="1.4153">
        <ele>1248.41</ele>
        <time>2015-09-05T11:23:53Z</time>
      </trkpt>
      <trkpt lat="42.70831" lon="1.4154">
        <ele>1253.7</ele>
        <time>2015-09-05T11:24:10Z</time>
      </trkpt>
      <trkpt lat="42.70829" lon="1.41553">
        <ele>1258.02</ele>
        <time>2015-09-05T11:24:27Z</time>
      </trkpt>
      <trkpt lat="42.70824" lon="1.41556">
        <ele>1261.87</ele>
        <time>2015-09-05T11:24:41Z</time>
      </trkpt>
      <trkpt lat="42.70823" lon="1.41566">
        <ele>1265.23</ele>
        <time>2015-09-05T11:24:59Z</time>
      </trkpt>
      <trkpt lat="42.70819" lon="1.41579">
        <ele>1268.12</ele>
        <time>2015-09-05T11:25:17Z</time>
      </trkpt>
      <trkpt lat="42.70817" lon="1.41579">
        <ele>1267.16</ele>
        <time>2015-09-05T11:25:33Z</time>
      </trkpt>
      <trkpt lat="42.70813" lon="1.41581">
        <ele>1268.6</ele>
        <time>2015-09-05T11:25:49Z</time>
      </trkpt>
      <trkpt lat="42.70807" lon="1.41586">
        <ele>1274.85</ele>
        <time>2015-09-05T11:26:04Z</time>
      </trkpt>
      <trkpt lat="42.70804" lon="1.41593">
        <ele>1276.77</ele>
        <time>2015-09-05T11:26:20Z</time>
      </trkpt>
      <trkpt lat="42.708" lon="1.41597">
        <ele>1281.57</ele>
        <time>2015-09-05T11:26:34Z</time>
      </trkpt>
      <trkpt lat="42.70797" lon="1.41605">
        <ele>1282.54</ele>
        <time>2015-09-05T11:26:48Z</time>
      </trkpt>
      <trkpt lat="42.70795" lon="1.41603">
        <ele>1282.06</ele>
        <time>2015-09-05T11:27:02Z</time>
      </trkpt>
      <trkpt lat="42.7079" lon="1.41609">
        <ele>1282.06</ele>
        <time>2015-09-05T11:27:10Z</time>
      </trkpt>
      <trkpt lat="42.70783" lon="1.41609">
        <ele>1283.02</ele>
        <time>2015-09-05T11:27:23Z</time>
      </trkpt>
      <trkpt lat="42.70779" lon="1.41608">
        <ele>1283.98</ele>
        <time>2015-09-05T11:27:40Z</time>
      </trkpt>
      <trkpt lat="42.70772" lon="1.41614">
        <ele>1288.78</ele>
        <time>2015-09-05T11:27:59Z</time>
      </trkpt>
      <trkpt lat="42.70769" lon="1.41619">
        <ele>1293.11</ele>
        <time>2015-09-05T11:28:16Z</time>
      </trkpt>
      <trkpt lat="42.70765" lon="1.41625">
        <ele>1295.99</ele>
        <time>2015-09-05T11:28:33Z</time>
      </trkpt>
      <trkpt lat="42.70759" lon="1.4163">
        <ele>1298.4</ele>
        <time>2015-09-05T11:28:47Z</time>
      </trkpt>
      <trkpt lat="42.70755" lon="1.4163">
        <ele>1300.8</ele>
        <time>2015-09-05T11:29:08Z</time>
      </trkpt>
      <trkpt lat="42.70755" lon="1.41628">
        <ele>1302.24</ele>
        <time>2015-09-05T11:29:36Z</time>
      </trkpt>
      <trkpt lat="42.70754" lon="1.41627">
        <ele>1303.2</ele>
        <time>2015-09-05T11:30:10Z</time>
      </trkpt>
      <trkpt lat="42.70753" lon="1.41629">
        <ele>1305.13</ele>
        <time>2015-09-05T11:30:35Z</time>
      </trkpt>
      <trkpt lat="42.70754" lon="1.41629">
        <ele>1305.61</ele>
        <time>2015-09-05T11:31:00Z</time>
      </trkpt>
      <trkpt lat="42.70755" lon="1.41629">
        <ele>1305.13</ele>
        <time>2015-09-05T11:31:28Z</time>
      </trkpt>
      <trkpt lat="42.70755" lon="1.41632">
        <ele>1305.13</ele>
        <time>2015-09-05T11:31:52Z</time>
      </trkpt>
      <trkpt lat="42.70748" lon="1.41634">
        <ele>1306.09</ele>
        <time>2015-09-05T11:32:12Z</time>
      </trkpt>
      <trkpt lat="42.70741" lon="1.41642">
        <ele>1308.49</ele>
        <time>2015-09-05T11:32:32Z</time>
      </trkpt>
      <trkpt lat="42.70735" lon="1.41655">
        <ele>1312.34</ele>
        <time>2015-09-05T11:32:49Z</time>
      </trkpt>
      <trkpt lat="42.7073" lon="1.41657">
        <ele>1315.7</ele>
        <time>2015-09-05T11:33:11Z</time>
      </trkpt>
      <trkpt lat="42.70726" lon="1.41664">
        <ele>1320.99</ele>
        <time>2015-09-05T11:33:28Z</time>
      </trkpt>
      <trkpt lat="42.7072" lon="1.41676">
        <ele>1323.87</ele>
        <time>2015-09-05T11:33:50Z</time>
      </trkpt>
      <trkpt lat="42.7071" lon="1.41685">
        <ele>1328.68</ele>
        <time>2015-09-05T11:34:10Z</time>
      </trkpt>
      <trkpt lat="42.70708" lon="1.41698">
        <ele>1333.01</ele>
        <time>2015-09-05T11:34:27Z</time>
      </trkpt>
      <trkpt lat="42.70702" lon="1.41709">
        <ele>1336.85</ele>
        <time>2015-09-05T11:34:44Z</time>
      </trkpt>
      <trkpt lat="42.70706" lon="1.41707">
        <ele>1339.25</ele>
        <time>2015-09-05T11:35:04Z</time>
      </trkpt>
      <trkpt lat="42.7071" lon="1.41686">
        <ele>1344.54</ele>
        <time>2015-09-05T11:35:28Z</time>
      </trkpt>
      <trkpt lat="42.70712" lon="1.41671">
        <ele>1349.35</ele>
        <time>2015-09-05T11:35:44Z</time>
      </trkpt>
      <trkpt lat="42.70715" lon="1.41668">
        <ele>1354.63</ele>
        <time>2015-09-05T11:36:13Z</time>
      </trkpt>
      <trkpt lat="42.70711" lon="1.4167">
        <ele>1356.08</ele>
        <time>2015-09-05T11:36:38Z</time>
      </trkpt>
      <trkpt lat="42.70712" lon="1.41672">
        <ele>1358.48</ele>
        <time>2015-09-05T11:37:07Z</time>
      </trkpt>
      <trkpt lat="42.70715" lon="1.41671">
        <ele>1359.92</ele>
        <time>2015-09-05T11:37:36Z</time>
      </trkpt>
      <trkpt lat="42.70713" lon="1.41671">
        <ele>1360.4</ele>
        <time>2015-09-05T11:38:08Z</time>
      </trkpt>
      <trkpt lat="42.70708" lon="1.41674">
        <ele>1360.4</ele>
        <time>2015-09-05T11:38:50Z</time>
      </trkpt>
      <trkpt lat="42.70707" lon="1.41675">
        <ele>1360.4</ele>
        <time>2015-09-05T11:39:28Z</time>
      </trkpt>
      <trkpt lat="42.70705" lon="1.41669">
        <ele>1363.77</ele>
        <time>2015-09-05T11:39:48Z</time>
      </trkpt>
      <trkpt lat="42.70703" lon="1.41658">
        <ele>1364.25</ele>
        <time>2015-09-05T11:40:10Z</time>
      </trkpt>
      <trkpt lat="42.70698" lon="1.41647">
        <ele>1364.25</ele>
        <time>2015-09-05T11:40:33Z</time>
      </trkpt>
      <trkpt lat="42.70698" lon="1.41624">
        <ele>1363.77</ele>
        <time>2015-09-05T11:40:53Z</time>
      </trkpt>
      <trkpt lat="42.7069" lon="1.41612">
        <ele>1363.77</ele>
        <time>2015-09-05T11:41:15Z</time>
      </trkpt>
      <trkpt lat="42.70685" lon="1.41601">
        <ele>1366.17</ele>
        <time>2015-09-05T11:41:38Z</time>
      </trkpt>
      <trkpt lat="42.70681" lon="1.41589">
        <ele>1366.65</ele>
        <time>2015-09-05T11:42:02Z</time>
      </trkpt>
      <trkpt lat="42.70673" lon="1.41578">
        <ele>1366.65</ele>
        <time>2015-09-05T11:42:23Z</time>
      </trkpt>
      <trkpt lat="42.70669" lon="1.41564">
        <ele>1367.61</ele>
        <time>2015-09-05T11:42:36Z</time>
      </trkpt>
      <trkpt lat="42.70666" lon="1.4155">
        <ele>1371.94</ele>
        <time>2015-09-05T11:42:55Z</time>
      </trkpt>
      <trkpt lat="42.70669" lon="1.41543">
        <ele>1375.78</ele>
        <time>2015-09-05T11:43:11Z</time>
      </trkpt>
      <trkpt lat="42.70658" lon="1.41539">
        <ele>1375.3</ele>
        <time>2015-09-05T11:43:26Z</time>
      </trkpt>
      <trkpt lat="42.70661" lon="1.41535">
        <ele>1376.26</ele>
        <time>2015-09-05T11:43:42Z</time>
      </trkpt>
      <trkpt lat="42.70661" lon="1.41526">
        <ele>1379.15</ele>
        <time>2015-09-05T11:44:00Z</time>
      </trkpt>
      <trkpt lat="42.70662" lon="1.4152">
        <ele>1382.51</ele>
        <time>2015-09-05T11:44:14Z</time>
      </trkpt>
      <trkpt lat="42.70667" lon="1.4152">
        <ele>1384.44</ele>
        <time>2015-09-05T11:44:24Z</time>
      </trkpt>
      <trkpt lat="42.70675" lon="1.41518">
        <ele>1386.36</ele>
        <time>2015-09-05T11:44:38Z</time>
      </trkpt>
      <trkpt lat="42.70676" lon="1.41507">
        <ele>1385.4</ele>
        <time>2015-09-05T11:44:52Z</time>
      </trkpt>
      <trkpt lat="42.70677" lon="1.41499">
        <ele>1384.92</ele>
        <time>2015-09-05T11:44:58Z</time>
      </trkpt>
      <trkpt lat="42.70677" lon="1.41485">
        <ele>1382.99</ele>
        <time>2015-09-05T11:45:14Z</time>
      </trkpt>
      <trkpt lat="42.70674" lon="1.41474">
        <ele>1383.47</ele>
        <time>2015-09-05T11:45:26Z</time>
      </trkpt>
      <trkpt lat="42.70675" lon="1.41462">
        <ele>1383.96</ele>
        <time>2015-09-05T11:45:38Z</time>
      </trkpt>
      <trkpt lat="42.70676" lon="1.41448">
        <ele>1384.92</ele>
        <time>2015-09-05T11:45:53Z</time>
      </trkpt>
      <trkpt lat="42.70677" lon="1.41431">
        <ele>1383.96</ele>
        <time>2015-09-05T11:46:10Z</time>
      </trkpt>
      <trkpt lat="42.70679" lon="1.41408">
        <ele>1383.96</ele>
        <time>2015-09-05T11:46:28Z</time>
      </trkpt>
      <trkpt lat="42.70685" lon="1.41393">
        <ele>1384.92</ele>
        <time>2015-09-05T11:46:44Z</time>
      </trkpt>
      <trkpt lat="42.70683" lon="1.41376">
        <ele>1384.44</ele>
        <time>2015-09-05T11:47:02Z</time>
      </trkpt>
      <trkpt lat="42.70685" lon="1.41354">
        <ele>1386.36</ele>
        <time>2015-09-05T11:47:20Z</time>
      </trkpt>
      <trkpt lat="42.70686" lon="1.41335">
        <ele>1387.32</ele>
        <time>2015-09-05T11:47:39Z</time>
      </trkpt>
      <trkpt lat="42.70686" lon="1.41311">
        <ele>1387.32</ele>
        <time>2015-09-05T11:47:59Z</time>
      </trkpt>
      <trkpt lat="42.70683" lon="1.41295">
        <ele>1391.17</ele>
        <time>2015-09-05T11:48:16Z</time>
      </trkpt>
      <trkpt lat="42.70688" lon="1.41273">
        <ele>1395.97</ele>
        <time>2015-09-05T11:48:35Z</time>
      </trkpt>
      <trkpt lat="42.70692" lon="1.41259">
        <ele>1396.93</ele>
        <time>2015-09-05T11:48:55Z</time>
      </trkpt>
      <trkpt lat="42.70691" lon="1.41242">
        <ele>1399.82</ele>
        <time>2015-09-05T11:49:15Z</time>
      </trkpt>
      <trkpt lat="42.70695" lon="1.41229">
        <ele>1401.26</ele>
        <time>2015-09-05T11:49:33Z</time>
      </trkpt>
      <trkpt lat="42.70701" lon="1.41209">
        <ele>1403.66</ele>
        <time>2015-09-05T11:49:53Z</time>
      </trkpt>
      <trkpt lat="42.70705" lon="1.41187">
        <ele>1403.66</ele>
        <time>2015-09-05T11:50:14Z</time>
      </trkpt>
      <trkpt lat="42.70703" lon="1.41172">
        <ele>1403.18</ele>
        <time>2015-09-05T11:50:33Z</time>
      </trkpt>
      <trkpt lat="42.70704" lon="1.41161">
        <ele>1406.55</ele>
        <time>2015-09-05T11:50:48Z</time>
      </trkpt>
      <trkpt lat="42.70703" lon="1.41149">
        <ele>1407.51</ele>
        <time>2015-09-05T11:51:07Z</time>
      </trkpt>
      <trkpt lat="42.70702" lon="1.41127">
        <ele>1411.35</ele>
        <time>2015-09-05T11:51:30Z</time>
      </trkpt>
      <trkpt lat="42.70698" lon="1.41112">
        <ele>1416.16</ele>
        <time>2015-09-05T11:51:50Z</time>
      </trkpt>
      <trkpt lat="42.70693" lon="1.41095">
        <ele>1419.04</ele>
        <time>2015-09-05T11:52:11Z</time>
      </trkpt>
      <trkpt lat="42.70691" lon="1.41074">
        <ele>1426.73</ele>
        <time>2015-09-05T11:52:33Z</time>
      </trkpt>
      <trkpt lat="42.70689" lon="1.41057">
        <ele>1428.66</ele>
        <time>2015-09-05T11:52:50Z</time>
      </trkpt>
      <trkpt lat="42.70686" lon="1.41047">
        <ele>1432.02</ele>
        <time>2015-09-05T11:53:10Z</time>
      </trkpt>
      <trkpt lat="42.70683" lon="1.4104">
        <ele>1435.87</ele>
        <time>2015-09-05T11:53:31Z</time>
      </trkpt>
      <trkpt lat="42.70683" lon="1.41031">
        <ele>1436.83</ele>
        <time>2015-09-05T11:53:50Z</time>
      </trkpt>
      <trkpt lat="42.70676" lon="1.41016">
        <ele>1440.19</ele>
        <time>2015-09-05T11:54:09Z</time>
      </trkpt>
      <trkpt lat="42.70663" lon="1.41021">
        <ele>1442.11</ele>
        <time>2015-09-05T11:54:21Z</time>
      </trkpt>
      <trkpt lat="42.70657" lon="1.41033">
        <ele>1444.52</ele>
        <time>2015-09-05T11:54:39Z</time>
      </trkpt>
      <trkpt lat="42.70654" lon="1.41042">
        <ele>1445</ele>
        <time>2015-09-05T11:54:57Z</time>
      </trkpt>
      <trkpt lat="42.70652" lon="1.41045">
        <ele>1445</ele>
        <time>2015-09-05T11:55:32Z</time>
      </trkpt>
      <trkpt lat="42.70652" lon="1.41043">
        <ele>1444.04</ele>
        <time>2015-09-05T11:55:53Z</time>
      </trkpt>
      <trkpt lat="42.70658" lon="1.41028">
        <ele>1444.52</ele>
        <time>2015-09-05T11:56:08Z</time>
      </trkpt>
      <trkpt lat="42.7066" lon="1.41008">
        <ele>1447.4</ele>
        <time>2015-09-05T11:56:24Z</time>
      </trkpt>
      <trkpt lat="42.70655" lon="1.40987">
        <ele>1449.81</ele>
        <time>2015-09-05T11:56:42Z</time>
      </trkpt>
      <trkpt lat="42.70651" lon="1.40969">
        <ele>1452.21</ele>
        <time>2015-09-05T11:56:59Z</time>
      </trkpt>
      <trkpt lat="42.70656" lon="1.40954">
        <ele>1453.17</ele>
        <time>2015-09-05T11:57:14Z</time>
      </trkpt>
      <trkpt lat="42.70655" lon="1.40941">
        <ele>1455.09</ele>
        <time>2015-09-05T11:57:25Z</time>
      </trkpt>
      <trkpt lat="42.70652" lon="1.40928">
        <ele>1457.5</ele>
        <time>2015-09-05T11:57:42Z</time>
      </trkpt>
      <trkpt lat="42.70654" lon="1.40911">
        <ele>1460.86</ele>
        <time>2015-09-05T11:58:00Z</time>
      </trkpt>
      <trkpt lat="42.70656" lon="1.40896">
        <ele>1465.67</ele>
        <time>2015-09-05T11:58:16Z</time>
      </trkpt>
      <trkpt lat="42.70654" lon="1.4088">
        <ele>1470.95</ele>
        <time>2015-09-05T11:58:32Z</time>
      </trkpt>
      <trkpt lat="42.70655" lon="1.40867">
        <ele>1474.32</ele>
        <time>2015-09-05T11:58:44Z</time>
      </trkpt>
      <trkpt lat="42.70656" lon="1.40848">
        <ele>1476.72</ele>
        <time>2015-09-05T11:59:01Z</time>
      </trkpt>
      <trkpt lat="42.70652" lon="1.40838">
        <ele>1479.61</ele>
        <time>2015-09-05T11:59:17Z</time>
      </trkpt>
      <trkpt lat="42.70651" lon="1.40825">
        <ele>1482.97</ele>
        <time>2015-09-05T11:59:31Z</time>
      </trkpt>
      <trkpt lat="42.70643" lon="1.40814">
        <ele>1484.89</ele>
        <time>2015-09-05T11:59:43Z</time>
      </trkpt>
      <trkpt lat="42.70639" lon="1.40805">
        <ele>1485.85</ele>
        <time>2015-09-05T11:59:57Z</time>
      </trkpt>
      <trkpt lat="42.7063" lon="1.40802">
        <ele>1485.85</ele>
        <time>2015-09-05T12:00:14Z</time>
      </trkpt>
      <trkpt lat="42.70626" lon="1.40798">
        <ele>1485.37</ele>
        <time>2015-09-05T12:00:28Z</time>
      </trkpt>
      <trkpt lat="42.70621" lon="1.40787">
        <ele>1487.78</ele>
        <time>2015-09-05T12:00:44Z</time>
      </trkpt>
      <trkpt lat="42.70614" lon="1.40776">
        <ele>1490.18</ele>
        <time>2015-09-05T12:01:01Z</time>
      </trkpt>
      <trkpt lat="42.70602" lon="1.4078">
        <ele>1490.66</ele>
        <time>2015-09-05T12:01:21Z</time>
      </trkpt>
      <trkpt lat="42.70589" lon="1.40783">
        <ele>1492.58</ele>
        <time>2015-09-05T12:01:39Z</time>
      </trkpt>
      <trkpt lat="42.70582" lon="1.40792">
        <ele>1494.51</ele>
        <time>2015-09-05T12:01:54Z</time>
      </trkpt>
      <trkpt lat="42.70579" lon="1.40803">
        <ele>1497.39</ele>
        <time>2015-09-05T12:02:12Z</time>
      </trkpt>
      <trkpt lat="42.70576" lon="1.40803">
        <ele>1501.24</ele>
        <time>2015-09-05T12:02:30Z</time>
      </trkpt>
      <trkpt lat="42.70575" lon="1.40801">
        <ele>1506.04</ele>
        <time>2015-09-05T12:02:48Z</time>
      </trkpt>
      <trkpt lat="42.70573" lon="1.40795">
        <ele>1509.89</ele>
        <time>2015-09-05T12:03:05Z</time>
      </trkpt>
      <trkpt lat="42.7057" lon="1.40785">
        <ele>1513.25</ele>
        <time>2015-09-05T12:03:22Z</time>
      </trkpt>
      <trkpt lat="42.70568" lon="1.40771">
        <ele>1516.62</ele>
        <time>2015-09-05T12:03:40Z</time>
      </trkpt>
      <trkpt lat="42.70569" lon="1.40761">
        <ele>1519.98</ele>
        <time>2015-09-05T12:03:57Z</time>
      </trkpt>
      <trkpt lat="42.7056" lon="1.4075">
        <ele>1524.31</ele>
        <time>2015-09-05T12:04:18Z</time>
      </trkpt>
      <trkpt lat="42.70562" lon="1.40738">
        <ele>1527.19</ele>
        <time>2015-09-05T12:04:35Z</time>
      </trkpt>
      <trkpt lat="42.70558" lon="1.40725">
        <ele>1528.15</ele>
        <time>2015-09-05T12:04:53Z</time>
      </trkpt>
      <trkpt lat="42.70546" lon="1.40724">
        <ele>1528.15</ele>
        <time>2015-09-05T12:05:12Z</time>
      </trkpt>
      <trkpt lat="42.70541" lon="1.40728">
        <ele>1529.11</ele>
        <time>2015-09-05T12:05:31Z</time>
      </trkpt>
      <trkpt lat="42.7054" lon="1.40722">
        <ele>1532</ele>
        <time>2015-09-05T12:05:48Z</time>
      </trkpt>
      <trkpt lat="42.70541" lon="1.40714">
        <ele>1536.8</ele>
        <time>2015-09-05T12:06:01Z</time>
      </trkpt>
      <trkpt lat="42.70541" lon="1.40709">
        <ele>1539.21</ele>
        <time>2015-09-05T12:06:17Z</time>
      </trkpt>
      <trkpt lat="42.7054" lon="1.40701">
        <ele>1542.09</ele>
        <time>2015-09-05T12:06:32Z</time>
      </trkpt>
      <trkpt lat="42.70539" lon="1.40695">
        <ele>1544.01</ele>
        <time>2015-09-05T12:06:51Z</time>
      </trkpt>
      <trkpt lat="42.70536" lon="1.40692">
        <ele>1544.5</ele>
        <time>2015-09-05T12:07:11Z</time>
      </trkpt>
      <trkpt lat="42.70533" lon="1.40686">
        <ele>1546.42</ele>
        <time>2015-09-05T12:07:32Z</time>
      </trkpt>
      <trkpt lat="42.70534" lon="1.40679">
        <ele>1553.63</ele>
        <time>2015-09-05T12:08:07Z</time>
      </trkpt>
      <trkpt lat="42.70527" lon="1.4067">
        <ele>1554.59</ele>
        <time>2015-09-05T12:08:33Z</time>
      </trkpt>
      <trkpt lat="42.70527" lon="1.40672">
        <ele>1555.07</ele>
        <time>2015-09-05T12:09:09Z</time>
      </trkpt>
      <trkpt lat="42.70526" lon="1.40667">
        <ele>1554.59</ele>
        <time>2015-09-05T12:09:26Z</time>
      </trkpt>
      <trkpt lat="42.70524" lon="1.4066">
        <ele>1555.07</ele>
        <time>2015-09-05T12:09:38Z</time>
      </trkpt>
      <trkpt lat="42.70518" lon="1.40653">
        <ele>1555.55</ele>
        <time>2015-09-05T12:09:55Z</time>
      </trkpt>
      <trkpt lat="42.70512" lon="1.40655">
        <ele>1555.55</ele>
        <time>2015-09-05T12:10:10Z</time>
      </trkpt>
      <trkpt lat="42.70507" lon="1.40657">
        <ele>1555.07</ele>
        <time>2015-09-05T12:10:27Z</time>
      </trkpt>
      <trkpt lat="42.70499" lon="1.40661">
        <ele>1557.95</ele>
        <time>2015-09-05T12:10:45Z</time>
      </trkpt>
      <trkpt lat="42.70496" lon="1.40657">
        <ele>1559.88</ele>
        <time>2015-09-05T12:11:02Z</time>
      </trkpt>
      <trkpt lat="42.70496" lon="1.40651">
        <ele>1564.2</ele>
        <time>2015-09-05T12:11:16Z</time>
      </trkpt>
      <trkpt lat="42.70497" lon="1.40649">
        <ele>1565.64</ele>
        <time>2015-09-05T12:11:35Z</time>
      </trkpt>
      <trkpt lat="42.7049" lon="1.40645">
        <ele>1566.61</ele>
        <time>2015-09-05T12:11:50Z</time>
      </trkpt>
      <trkpt lat="42.70481" lon="1.40644">
        <ele>1569.01</ele>
        <time>2015-09-05T12:12:10Z</time>
      </trkpt>
      <trkpt lat="42.70476" lon="1.40645">
        <ele>1572.37</ele>
        <time>2015-09-05T12:12:28Z</time>
      </trkpt>
      <trkpt lat="42.70475" lon="1.40637">
        <ele>1577.18</ele>
        <time>2015-09-05T12:12:46Z</time>
      </trkpt>
      <trkpt lat="42.70464" lon="1.40629">
        <ele>1580.54</ele>
        <time>2015-09-05T12:13:04Z</time>
      </trkpt>
      <trkpt lat="42.70458" lon="1.40639">
        <ele>1583.91</ele>
        <time>2015-09-05T12:13:23Z</time>
      </trkpt>
      <trkpt lat="42.70453" lon="1.40647">
        <ele>1588.24</ele>
        <time>2015-09-05T12:13:38Z</time>
      </trkpt>
      <trkpt lat="42.70449" lon="1.4065">
        <ele>1588.72</ele>
        <time>2015-09-05T12:13:56Z</time>
      </trkpt>
      <trkpt lat="42.70447" lon="1.40647">
        <ele>1593.04</ele>
        <time>2015-09-05T12:14:15Z</time>
      </trkpt>
      <trkpt lat="42.70439" lon="1.40648">
        <ele>1597.37</ele>
        <time>2015-09-05T12:14:34Z</time>
      </trkpt>
      <trkpt lat="42.70434" lon="1.40651">
        <ele>1600.25</ele>
        <time>2015-09-05T12:14:55Z</time>
      </trkpt>
      <trkpt lat="42.70432" lon="1.40647">
        <ele>1605.06</ele>
        <time>2015-09-05T12:15:15Z</time>
      </trkpt>
      <trkpt lat="42.70428" lon="1.40638">
        <ele>1608.42</ele>
        <time>2015-09-05T12:15:34Z</time>
      </trkpt>
      <trkpt lat="42.70419" lon="1.40634">
        <ele>1612.27</ele>
        <time>2015-09-05T12:15:52Z</time>
      </trkpt>
      <trkpt lat="42.70413" lon="1.40634">
        <ele>1612.27</ele>
        <time>2015-09-05T12:16:05Z</time>
      </trkpt>
      <trkpt lat="42.70409" lon="1.40631">
        <ele>1613.23</ele>
        <time>2015-09-05T12:16:18Z</time>
      </trkpt>
      <trkpt lat="42.70406" lon="1.40628">
        <ele>1615.63</ele>
        <time>2015-09-05T12:16:34Z</time>
      </trkpt>
      <trkpt lat="42.70403" lon="1.40621">
        <ele>1617.07</ele>
        <time>2015-09-05T12:16:49Z</time>
      </trkpt>
      <trkpt lat="42.70399" lon="1.40618">
        <ele>1619.96</ele>
        <time>2015-09-05T12:17:04Z</time>
      </trkpt>
      <trkpt lat="42.70398" lon="1.40616">
        <ele>1621.4</ele>
        <time>2015-09-05T12:17:16Z</time>
      </trkpt>
      <trkpt lat="42.70393" lon="1.4061">
        <ele>1623.32</ele>
        <time>2015-09-05T12:17:30Z</time>
      </trkpt>
      <trkpt lat="42.70391" lon="1.40608">
        <ele>1623.32</ele>
        <time>2015-09-05T12:17:49Z</time>
      </trkpt>
      <trkpt lat="42.70389" lon="1.40603">
        <ele>1622.36</ele>
        <time>2015-09-05T12:18:10Z</time>
      </trkpt>
      <trkpt lat="42.7039" lon="1.40603">
        <ele>1625.25</ele>
        <time>2015-09-05T12:18:38Z</time>
      </trkpt>
      <trkpt lat="42.7039" lon="1.40603">
        <ele>1625.73</ele>
        <time>2015-09-05T12:19:05Z</time>
      </trkpt>
      <trkpt lat="42.7039" lon="1.40604">
        <ele>1627.17</ele>
        <time>2015-09-05T12:19:35Z</time>
      </trkpt>
      <trkpt lat="42.70391" lon="1.40605">
        <ele>1628.13</ele>
        <time>2015-09-05T12:20:10Z</time>
      </trkpt>
      <trkpt lat="42.70391" lon="1.40606">
        <ele>1628.61</ele>
        <time>2015-09-05T12:20:44Z</time>
      </trkpt>
      <trkpt lat="42.70391" lon="1.40606">
        <ele>1628.61</ele>
        <time>2015-09-05T12:21:12Z</time>
      </trkpt>
      <trkpt lat="42.70391" lon="1.40606">
        <ele>1628.13</ele>
        <time>2015-09-05T12:21:52Z</time>
      </trkpt>
      <trkpt lat="42.70387" lon="1.40605">
        <ele>1628.61</ele>
        <time>2015-09-05T12:22:11Z</time>
      </trkpt>
      <trkpt lat="42.70386" lon="1.40605">
        <ele>1629.09</ele>
        <time>2015-09-05T12:22:24Z</time>
      </trkpt>
      <trkpt lat="42.70383" lon="1.40606">
        <ele>1629.57</ele>
        <time>2015-09-05T12:22:38Z</time>
      </trkpt>
      <trkpt lat="42.70376" lon="1.40601">
        <ele>1631.01</ele>
        <time>2015-09-05T12:22:51Z</time>
      </trkpt>
      <trkpt lat="42.70373" lon="1.406">
        <ele>1631.98</ele>
        <time>2015-09-05T12:23:16Z</time>
      </trkpt>
      <trkpt lat="42.70369" lon="1.40599">
        <ele>1632.94</ele>
        <time>2015-09-05T12:23:31Z</time>
      </trkpt>
      <trkpt lat="42.70359" lon="1.40592">
        <ele>1634.38</ele>
        <time>2015-09-05T12:23:46Z</time>
      </trkpt>
      <trkpt lat="42.70353" lon="1.40587">
        <ele>1636.78</ele>
        <time>2015-09-05T12:24:03Z</time>
      </trkpt>
      <trkpt lat="42.70349" lon="1.40586">
        <ele>1638.22</ele>
        <time>2015-09-05T12:24:17Z</time>
      </trkpt>
      <trkpt lat="42.70346" lon="1.40585">
        <ele>1639.67</ele>
        <time>2015-09-05T12:24:31Z</time>
      </trkpt>
      <trkpt lat="42.70338" lon="1.40585">
        <ele>1642.07</ele>
        <time>2015-09-05T12:24:44Z</time>
      </trkpt>
      <trkpt lat="42.70325" lon="1.4058">
        <ele>1646.88</ele>
        <time>2015-09-05T12:24:58Z</time>
      </trkpt>
      <trkpt lat="42.70317" lon="1.40579">
        <ele>1648.32</ele>
        <time>2015-09-05T12:25:14Z</time>
      </trkpt>
      <trkpt lat="42.70312" lon="1.40581">
        <ele>1650.24</ele>
        <time>2015-09-05T12:25:25Z</time>
      </trkpt>
      <trkpt lat="42.70305" lon="1.40581">
        <ele>1652.16</ele>
        <time>2015-09-05T12:25:38Z</time>
      </trkpt>
      <trkpt lat="42.70298" lon="1.4058">
        <ele>1653.6</ele>
        <time>2015-09-05T12:25:50Z</time>
      </trkpt>
      <trkpt lat="42.70293" lon="1.40582">
        <ele>1656.01</ele>
        <time>2015-09-05T12:26:01Z</time>
      </trkpt>
      <trkpt lat="42.70288" lon="1.40585">
        <ele>1657.93</ele>
        <time>2015-09-05T12:26:13Z</time>
      </trkpt>
      <trkpt lat="42.70285" lon="1.40586">
        <ele>1658.89</ele>
        <time>2015-09-05T12:26:27Z</time>
      </trkpt>
      <trkpt lat="42.70286" lon="1.40587">
        <ele>1660.33</ele>
        <time>2015-09-05T12:26:53Z</time>
      </trkpt>
      <trkpt lat="42.70284" lon="1.40589">
        <ele>1661.3</ele>
        <time>2015-09-05T12:27:06Z</time>
      </trkpt>
      <trkpt lat="42.70286" lon="1.40594">
        <ele>1662.26</ele>
        <time>2015-09-05T12:27:10Z</time>
      </trkpt>
      <trkpt lat="42.70283" lon="1.40598">
        <ele>1663.22</ele>
        <time>2015-09-05T12:27:19Z</time>
      </trkpt>
      <trkpt lat="42.70285" lon="1.40594">
        <ele>1663.22</ele>
        <time>2015-09-05T12:27:22Z</time>
      </trkpt>
      <trkpt lat="42.70284" lon="1.40587">
        <ele>1663.22</ele>
        <time>2015-09-05T12:27:37Z</time>
      </trkpt>
      <trkpt lat="42.70284" lon="1.40587">
        <ele>1663.7</ele>
        <time>2015-09-05T12:27:55Z</time>
      </trkpt>
      <trkpt lat="42.70283" lon="1.40586">
        <ele>1662.74</ele>
        <time>2015-09-05T12:28:15Z</time>
      </trkpt>
      <trkpt lat="42.70283" lon="1.40585">
        <ele>1662.26</ele>
        <time>2015-09-05T12:28:37Z</time>
      </trkpt>
      <trkpt lat="42.70284" lon="1.40585">
        <ele>1661.78</ele>
        <time>2015-09-05T12:29:05Z</time>
      </trkpt>
      <trkpt lat="42.70283" lon="1.40585">
        <ele>1661.78</ele>
        <time>2015-09-05T12:29:35Z</time>
      </trkpt>
      <trkpt lat="42.70284" lon="1.40584">
        <ele>1661.3</ele>
        <time>2015-09-05T12:30:04Z</time>
      </trkpt>
      <trkpt lat="42.70284" lon="1.40584">
        <ele>1661.3</ele>
        <time>2015-09-05T12:30:36Z</time>
      </trkpt>
      <trkpt lat="42.70284" lon="1.40584">
        <ele>1661.3</ele>
        <time>2015-09-05T12:31:07Z</time>
      </trkpt>
      <trkpt lat="42.70278" lon="1.40584">
        <ele>1660.33</ele>
        <time>2015-09-05T12:31:38Z</time>
      </trkpt>
      <trkpt lat="42.70282" lon="1.40583">
        <ele>1660.33</ele>
        <time>2015-09-05T12:32:01Z</time>
      </trkpt>
      <trkpt lat="42.70284" lon="1.40582">
        <ele>1660.33</ele>
        <time>2015-09-05T12:32:37Z</time>
      </trkpt>
      <trkpt lat="42.70284" lon="1.40583">
        <ele>1660.33</ele>
        <time>2015-09-05T12:33:13Z</time>
      </trkpt>
      <trkpt lat="42.70283" lon="1.40584">
        <ele>1660.33</ele>
        <time>2015-09-05T12:33:42Z</time>
      </trkpt>
      <trkpt lat="42.70281" lon="1.40584">
        <ele>1659.85</ele>
        <time>2015-09-05T12:34:12Z</time>
      </trkpt>
      <trkpt lat="42.70282" lon="1.40582">
        <ele>1660.33</ele>
        <time>2015-09-05T12:34:42Z</time>
      </trkpt>
      <trkpt lat="42.70282" lon="1.40582">
        <ele>1660.33</ele>
        <time>2015-09-05T12:35:11Z</time>
      </trkpt>
      <trkpt lat="42.70282" lon="1.40581">
        <ele>1660.81</ele>
        <time>2015-09-05T12:35:41Z</time>
      </trkpt>
      <trkpt lat="42.70282" lon="1.40581">
        <ele>1660.33</ele>
        <time>2015-09-05T12:36:14Z</time>
      </trkpt>
      <trkpt lat="42.70283" lon="1.40581">
        <ele>1660.81</ele>
        <time>2015-09-05T12:36:44Z</time>
      </trkpt>
      <trkpt lat="42.70283" lon="1.40581">
        <ele>1660.81</ele>
        <time>2015-09-05T12:37:13Z</time>
      </trkpt>
      <trkpt lat="42.70283" lon="1.40581">
        <ele>1661.78</ele>
        <time>2015-09-05T12:37:47Z</time>
      </trkpt>
      <trkpt lat="42.70281" lon="1.40583">
        <ele>1661.78</ele>
        <time>2015-09-05T12:38:15Z</time>
      </trkpt>
      <trkpt lat="42.70287" lon="1.40585">
        <ele>1662.74</ele>
        <time>2015-09-05T12:38:41Z</time>
      </trkpt>
      <trkpt lat="42.70287" lon="1.40587">
        <ele>1663.22</ele>
        <time>2015-09-05T12:39:14Z</time>
      </trkpt>
      <trkpt lat="42.70286" lon="1.40585">
        <ele>1664.18</ele>
        <time>2015-09-05T12:39:45Z</time>
      </trkpt>
      <trkpt lat="42.70285" lon="1.40583">
        <ele>1665.14</ele>
        <time>2015-09-05T12:40:17Z</time>
      </trkpt>
      <trkpt lat="42.70276" lon="1.40582">
        <ele>1666.1</ele>
        <time>2015-09-05T12:40:46Z</time>
      </trkpt>
      <trkpt lat="42.7028" lon="1.40584">
        <ele>1663.22</ele>
        <time>2015-09-05T12:41:16Z</time>
      </trkpt>
      <trkpt lat="42.70284" lon="1.40584">
        <ele>1664.18</ele>
        <time>2015-09-05T12:41:45Z</time>
      </trkpt>
      <trkpt lat="42.70284" lon="1.40583">
        <ele>1665.14</ele>
        <time>2015-09-05T12:42:17Z</time>
      </trkpt>
      <trkpt lat="42.70283" lon="1.40583">
        <ele>1665.14</ele>
        <time>2015-09-05T12:42:54Z</time>
      </trkpt>
      <trkpt lat="42.70283" lon="1.40583">
        <ele>1665.62</ele>
        <time>2015-09-05T12:43:28Z</time>
      </trkpt>
      <trkpt lat="42.70284" lon="1.40584">
        <ele>1666.1</ele>
        <time>2015-09-05T12:44:01Z</time>
      </trkpt>
      <trkpt lat="42.70283" lon="1.40584">
        <ele>1666.1</ele>
        <time>2015-09-05T12:44:27Z</time>
      </trkpt>
      <trkpt lat="42.70284" lon="1.40584">
        <ele>1669.47</ele>
        <time>2015-09-05T12:44:48Z</time>
      </trkpt>
      <trkpt lat="42.70283" lon="1.40586">
        <ele>1669.95</ele>
        <time>2015-09-05T12:45:05Z</time>
      </trkpt>
      <trkpt lat="42.70282" lon="1.40586">
        <ele>1669.47</ele>
        <time>2015-09-05T12:45:27Z</time>
      </trkpt>
      <trkpt lat="42.70283" lon="1.40585">
        <ele>1669.95</ele>
        <time>2015-09-05T12:45:44Z</time>
      </trkpt>
      <trkpt lat="42.70279" lon="1.40581">
        <ele>1670.43</ele>
        <time>2015-09-05T12:46:06Z</time>
      </trkpt>
      <trkpt lat="42.70273" lon="1.40582">
        <ele>1670.91</ele>
        <time>2015-09-05T12:46:19Z</time>
      </trkpt>
      <trkpt lat="42.70268" lon="1.40582">
        <ele>1672.35</ele>
        <time>2015-09-05T12:46:28Z</time>
      </trkpt>
      <trkpt lat="42.70259" lon="1.40575">
        <ele>1673.31</ele>
        <time>2015-09-05T12:46:42Z</time>
      </trkpt>
      <trkpt lat="42.70253" lon="1.40568">
        <ele>1674.27</ele>
        <time>2015-09-05T12:46:56Z</time>
      </trkpt>
      <trkpt lat="42.70248" lon="1.40564">
        <ele>1674.75</ele>
        <time>2015-09-05T12:47:10Z</time>
      </trkpt>
      <trkpt lat="42.70241" lon="1.40558">
        <ele>1676.2</ele>
        <time>2015-09-05T12:47:25Z</time>
      </trkpt>
      <trkpt lat="42.70238" lon="1.40565">
        <ele>1678.12</ele>
        <time>2015-09-05T12:47:37Z</time>
      </trkpt>
      <trkpt lat="42.70237" lon="1.40569">
        <ele>1679.56</ele>
        <time>2015-09-05T12:47:51Z</time>
      </trkpt>
      <trkpt lat="42.70234" lon="1.40574">
        <ele>1681</ele>
        <time>2015-09-05T12:48:02Z</time>
      </trkpt>
      <trkpt lat="42.70234" lon="1.40575">
        <ele>1681</ele>
        <time>2015-09-05T12:48:03Z</time>
      </trkpt>
      <trkpt lat="42.70233" lon="1.40586">
        <ele>1681.48</ele>
        <time>2015-09-05T12:48:16Z</time>
      </trkpt>
      <trkpt lat="42.70232" lon="1.40595">
        <ele>1682.93</ele>
        <time>2015-09-05T12:48:28Z</time>
      </trkpt>
      <trkpt lat="42.70231" lon="1.406">
        <ele>1683.89</ele>
        <time>2015-09-05T12:48:40Z</time>
      </trkpt>
      <trkpt lat="42.70229" lon="1.40605">
        <ele>1684.85</ele>
        <time>2015-09-05T12:48:51Z</time>
      </trkpt>
      <trkpt lat="42.7023" lon="1.40613">
        <ele>1686.29</ele>
        <time>2015-09-05T12:49:03Z</time>
      </trkpt>
      <trkpt lat="42.70227" lon="1.40618">
        <ele>1687.73</ele>
        <time>2015-09-05T12:49:14Z</time>
      </trkpt>
      <trkpt lat="42.70225" lon="1.40624">
        <ele>1691.1</ele>
        <time>2015-09-05T12:49:24Z</time>
      </trkpt>
      <trkpt lat="42.70227" lon="1.40631">
        <ele>1693.02</ele>
        <time>2015-09-05T12:49:36Z</time>
      </trkpt>
      <trkpt lat="42.70224" lon="1.40632">
        <ele>1694.46</ele>
        <time>2015-09-05T12:49:48Z</time>
      </trkpt>
      <trkpt lat="42.70221" lon="1.40641">
        <ele>1696.38</ele>
        <time>2015-09-05T12:50:01Z</time>
      </trkpt>
      <trkpt lat="42.70215" lon="1.40644">
        <ele>1699.75</ele>
        <time>2015-09-05T12:50:13Z</time>
      </trkpt>
      <trkpt lat="42.70211" lon="1.40648">
        <ele>1701.67</ele>
        <time>2015-09-05T12:50:27Z</time>
      </trkpt>
      <trkpt lat="42.70205" lon="1.40651">
        <ele>1704.07</ele>
        <time>2015-09-05T12:50:39Z</time>
      </trkpt>
      <trkpt lat="42.70202" lon="1.40655">
        <ele>1705.52</ele>
        <time>2015-09-05T12:50:48Z</time>
      </trkpt>
      <trkpt lat="42.70198" lon="1.40654">
        <ele>1707.92</ele>
        <time>2015-09-05T12:51:00Z</time>
      </trkpt>
      <trkpt lat="42.70191" lon="1.40653">
        <ele>1710.32</ele>
        <time>2015-09-05T12:51:13Z</time>
      </trkpt>
      <trkpt lat="42.70184" lon="1.40654">
        <ele>1711.76</ele>
        <time>2015-09-05T12:51:26Z</time>
      </trkpt>
      <trkpt lat="42.70177" lon="1.40653">
        <ele>1715.61</ele>
        <time>2015-09-05T12:51:40Z</time>
      </trkpt>
      <trkpt lat="42.70172" lon="1.40654">
        <ele>1718.01</ele>
        <time>2015-09-05T12:51:53Z</time>
      </trkpt>
      <trkpt lat="42.70168" lon="1.40652">
        <ele>1719.94</ele>
        <time>2015-09-05T12:52:06Z</time>
      </trkpt>
      <trkpt lat="42.70163" lon="1.4065">
        <ele>1721.38</ele>
        <time>2015-09-05T12:52:20Z</time>
      </trkpt>
      <trkpt lat="42.70162" lon="1.40654">
        <ele>1722.34</ele>
        <time>2015-09-05T12:52:34Z</time>
      </trkpt>
      <trkpt lat="42.70157" lon="1.4065">
        <ele>1723.3</ele>
        <time>2015-09-05T12:52:49Z</time>
      </trkpt>
      <trkpt lat="42.70152" lon="1.40649">
        <ele>1726.18</ele>
        <time>2015-09-05T12:53:03Z</time>
      </trkpt>
      <trkpt lat="42.70146" lon="1.40649">
        <ele>1728.11</ele>
        <time>2015-09-05T12:53:17Z</time>
      </trkpt>
      <trkpt lat="42.70141" lon="1.40648">
        <ele>1730.99</ele>
        <time>2015-09-05T12:53:30Z</time>
      </trkpt>
      <trkpt lat="42.7014" lon="1.40651">
        <ele>1731.95</ele>
        <time>2015-09-05T12:53:41Z</time>
      </trkpt>
      <trkpt lat="42.70138" lon="1.40653">
        <ele>1733.88</ele>
        <time>2015-09-05T12:53:54Z</time>
      </trkpt>
      <trkpt lat="42.70134" lon="1.40654">
        <ele>1735.8</ele>
        <time>2015-09-05T12:54:07Z</time>
      </trkpt>
      <trkpt lat="42.70132" lon="1.40658">
        <ele>1738.68</ele>
        <time>2015-09-05T12:54:17Z</time>
      </trkpt>
      <trkpt lat="42.70131" lon="1.40661">
        <ele>1740.6</ele>
        <time>2015-09-05T12:54:28Z</time>
      </trkpt>
      <trkpt lat="42.70127" lon="1.40661">
        <ele>1743.01</ele>
        <time>2015-09-05T12:54:40Z</time>
      </trkpt>
      <trkpt lat="42.70122" lon="1.40658">
        <ele>1746.37</ele>
        <time>2015-09-05T12:54:53Z</time>
      </trkpt>
      <trkpt lat="42.70117" lon="1.40658">
        <ele>1748.78</ele>
        <time>2015-09-05T12:55:08Z</time>
      </trkpt>
      <trkpt lat="42.70111" lon="1.4065">
        <ele>1750.7</ele>
        <time>2015-09-05T12:55:22Z</time>
      </trkpt>
      <trkpt lat="42.70105" lon="1.4065">
        <ele>1752.62</ele>
        <time>2015-09-05T12:55:35Z</time>
      </trkpt>
      <trkpt lat="42.70102" lon="1.40643">
        <ele>1755.5</ele>
        <time>2015-09-05T12:55:47Z</time>
      </trkpt>
      <trkpt lat="42.70097" lon="1.40641">
        <ele>1757.91</ele>
        <time>2015-09-05T12:56:03Z</time>
      </trkpt>
      <trkpt lat="42.70096" lon="1.40644">
        <ele>1758.87</ele>
        <time>2015-09-05T12:56:14Z</time>
      </trkpt>
      <trkpt lat="42.70093" lon="1.4064">
        <ele>1761.27</ele>
        <time>2015-09-05T12:56:22Z</time>
      </trkpt>
      <trkpt lat="42.70087" lon="1.40633">
        <ele>1764.16</ele>
        <time>2015-09-05T12:56:36Z</time>
      </trkpt>
      <trkpt lat="42.7008" lon="1.40626">
        <ele>1768</ele>
        <time>2015-09-05T12:56:51Z</time>
      </trkpt>
      <trkpt lat="42.70073" lon="1.40618">
        <ele>1770.41</ele>
        <time>2015-09-05T12:57:07Z</time>
      </trkpt>
      <trkpt lat="42.70067" lon="1.40617">
        <ele>1772.33</ele>
        <time>2015-09-05T12:57:20Z</time>
      </trkpt>
      <trkpt lat="42.70059" lon="1.4061">
        <ele>1774.25</ele>
        <time>2015-09-05T12:57:34Z</time>
      </trkpt>
      <trkpt lat="42.70053" lon="1.40604">
        <ele>1776.17</ele>
        <time>2015-09-05T12:57:49Z</time>
      </trkpt>
      <trkpt lat="42.70044" lon="1.406">
        <ele>1777.61</ele>
        <time>2015-09-05T12:58:05Z</time>
      </trkpt>
      <trkpt lat="42.70039" lon="1.40599">
        <ele>1778.58</ele>
        <time>2015-09-05T12:58:18Z</time>
      </trkpt>
      <trkpt lat="42.70034" lon="1.406">
        <ele>1779.54</ele>
        <time>2015-09-05T12:58:29Z</time>
      </trkpt>
      <trkpt lat="42.70027" lon="1.40601">
        <ele>1781.46</ele>
        <time>2015-09-05T12:58:45Z</time>
      </trkpt>
      <trkpt lat="42.70026" lon="1.40601">
        <ele>1781.46</ele>
        <time>2015-09-05T12:58:46Z</time>
      </trkpt>
      <trkpt lat="42.70028" lon="1.40608">
        <ele>1782.42</ele>
        <time>2015-09-05T12:58:58Z</time>
      </trkpt>
      <trkpt lat="42.70031" lon="1.40615">
        <ele>1783.86</ele>
        <time>2015-09-05T12:59:09Z</time>
      </trkpt>
      <trkpt lat="42.70032" lon="1.40618">
        <ele>1784.34</ele>
        <time>2015-09-05T12:59:12Z</time>
      </trkpt>
      <trkpt lat="42.70031" lon="1.40621">
        <ele>1785.31</ele>
        <time>2015-09-05T12:59:25Z</time>
      </trkpt>
      <trkpt lat="42.70027" lon="1.40623">
        <ele>1787.23</ele>
        <time>2015-09-05T12:59:39Z</time>
      </trkpt>
      <trkpt lat="42.70022" lon="1.40624">
        <ele>1788.67</ele>
        <time>2015-09-05T12:59:52Z</time>
      </trkpt>
      <trkpt lat="42.70029" lon="1.40633">
        <ele>1791.07</ele>
        <time>2015-09-05T13:00:02Z</time>
      </trkpt>
      <trkpt lat="42.70032" lon="1.40642">
        <ele>1793.48</ele>
        <time>2015-09-05T13:00:15Z</time>
      </trkpt>
      <trkpt lat="42.70031" lon="1.40647">
        <ele>1794.44</ele>
        <time>2015-09-05T13:00:26Z</time>
      </trkpt>
      <trkpt lat="42.70032" lon="1.40652">
        <ele>1795.4</ele>
        <time>2015-09-05T13:00:38Z</time>
      </trkpt>
      <trkpt lat="42.70032" lon="1.40658">
        <ele>1796.84</ele>
        <time>2015-09-05T13:00:50Z</time>
      </trkpt>
      <trkpt lat="42.70028" lon="1.40658">
        <ele>1797.8</ele>
        <time>2015-09-05T13:01:02Z</time>
      </trkpt>
      <trkpt lat="42.70024" lon="1.40659">
        <ele>1799.73</ele>
        <time>2015-09-05T13:01:13Z</time>
      </trkpt>
      <trkpt lat="42.7002" lon="1.40662">
        <ele>1802.61</ele>
        <time>2015-09-05T13:01:25Z</time>
      </trkpt>
      <trkpt lat="42.70021" lon="1.40671">
        <ele>1804.05</ele>
        <time>2015-09-05T13:01:37Z</time>
      </trkpt>
      <trkpt lat="42.70019" lon="1.40677">
        <ele>1806.94</ele>
        <time>2015-09-05T13:01:49Z</time>
      </trkpt>
      <trkpt lat="42.70014" lon="1.4068">
        <ele>1809.34</ele>
        <time>2015-09-05T13:01:58Z</time>
      </trkpt>
      <trkpt lat="42.70008" lon="1.40685">
        <ele>1811.26</ele>
        <time>2015-09-05T13:02:10Z</time>
      </trkpt>
      <trkpt lat="42.70003" lon="1.40687">
        <ele>1813.18</ele>
        <time>2015-09-05T13:02:21Z</time>
      </trkpt>
      <trkpt lat="42.70002" lon="1.40692">
        <ele>1815.11</ele>
        <time>2015-09-05T13:02:33Z</time>
      </trkpt>
      <trkpt lat="42.70001" lon="1.40692">
        <ele>1815.11</ele>
        <time>2015-09-05T13:02:35Z</time>
      </trkpt>
      <trkpt lat="42.69996" lon="1.40697">
        <ele>1816.55</ele>
        <time>2015-09-05T13:02:45Z</time>
      </trkpt>
      <trkpt lat="42.69993" lon="1.40701">
        <ele>1818.95</ele>
        <time>2015-09-05T13:02:57Z</time>
      </trkpt>
      <trkpt lat="42.6999" lon="1.40705">
        <ele>1820.39</ele>
        <time>2015-09-05T13:03:03Z</time>
      </trkpt>
      <trkpt lat="42.69985" lon="1.40709">
        <ele>1823.28</ele>
        <time>2015-09-05T13:03:15Z</time>
      </trkpt>
      <trkpt lat="42.69984" lon="1.40712">
        <ele>1823.76</ele>
        <time>2015-09-05T13:03:36Z</time>
      </trkpt>
      <trkpt lat="42.69984" lon="1.40712">
        <ele>1825.2</ele>
        <time>2015-09-05T13:04:00Z</time>
      </trkpt>
      <trkpt lat="42.69984" lon="1.40711">
        <ele>1824.24</ele>
        <time>2015-09-05T13:04:30Z</time>
      </trkpt>
      <trkpt lat="42.69984" lon="1.40711">
        <ele>1824.24</ele>
        <time>2015-09-05T13:05:00Z</time>
      </trkpt>
      <trkpt lat="42.69985" lon="1.4071">
        <ele>1824.72</ele>
        <time>2015-09-05T13:05:27Z</time>
      </trkpt>
      <trkpt lat="42.69986" lon="1.40709">
        <ele>1825.68</ele>
        <time>2015-09-05T13:05:44Z</time>
      </trkpt>
      <trkpt lat="42.69986" lon="1.40709">
        <ele>1826.16</ele>
        <time>2015-09-05T13:06:08Z</time>
      </trkpt>
      <trkpt lat="42.69985" lon="1.40709">
        <ele>1826.16</ele>
        <time>2015-09-05T13:06:39Z</time>
      </trkpt>
      <trkpt lat="42.6998" lon="1.40712">
        <ele>1826.16</ele>
        <time>2015-09-05T13:06:49Z</time>
      </trkpt>
      <trkpt lat="42.6997" lon="1.40716">
        <ele>1829.05</ele>
        <time>2015-09-05T13:07:02Z</time>
      </trkpt>
      <trkpt lat="42.69965" lon="1.40719">
        <ele>1830.97</ele>
        <time>2015-09-05T13:07:14Z</time>
      </trkpt>
      <trkpt lat="42.69963" lon="1.40723">
        <ele>1831.45</ele>
        <time>2015-09-05T13:07:26Z</time>
      </trkpt>
      <trkpt lat="42.69959" lon="1.40727">
        <ele>1832.89</ele>
        <time>2015-09-05T13:07:37Z</time>
      </trkpt>
      <trkpt lat="42.69955" lon="1.4073">
        <ele>1833.85</ele>
        <time>2015-09-05T13:07:50Z</time>
      </trkpt>
      <trkpt lat="42.69949" lon="1.40733">
        <ele>1834.81</ele>
        <time>2015-09-05T13:08:04Z</time>
      </trkpt>
      <trkpt lat="42.69945" lon="1.40734">
        <ele>1836.26</ele>
        <time>2015-09-05T13:08:16Z</time>
      </trkpt>
      <trkpt lat="42.69943" lon="1.40734">
        <ele>1837.22</ele>
        <time>2015-09-05T13:08:18Z</time>
      </trkpt>
      <trkpt lat="42.69936" lon="1.40736">
        <ele>1839.14</ele>
        <time>2015-09-05T13:08:30Z</time>
      </trkpt>
      <trkpt lat="42.69928" lon="1.40739">
        <ele>1841.06</ele>
        <time>2015-09-05T13:08:43Z</time>
      </trkpt>
      <trkpt lat="42.69922" lon="1.40741">
        <ele>1843.95</ele>
        <time>2015-09-05T13:08:55Z</time>
      </trkpt>
      <trkpt lat="42.69917" lon="1.40745">
        <ele>1845.39</ele>
        <time>2015-09-05T13:09:08Z</time>
      </trkpt>
      <trkpt lat="42.69912" lon="1.40747">
        <ele>1845.39</ele>
        <time>2015-09-05T13:09:19Z</time>
      </trkpt>
      <trkpt lat="42.69908" lon="1.40755">
        <ele>1846.35</ele>
        <time>2015-09-05T13:09:31Z</time>
      </trkpt>
      <trkpt lat="42.69906" lon="1.40757">
        <ele>1848.75</ele>
        <time>2015-09-05T13:09:41Z</time>
      </trkpt>
      <trkpt lat="42.69903" lon="1.40761">
        <ele>1849.23</ele>
        <time>2015-09-05T13:09:51Z</time>
      </trkpt>
      <trkpt lat="42.699" lon="1.40763">
        <ele>1850.68</ele>
        <time>2015-09-05T13:10:05Z</time>
      </trkpt>
      <trkpt lat="42.69896" lon="1.40764">
        <ele>1852.12</ele>
        <time>2015-09-05T13:10:16Z</time>
      </trkpt>
      <trkpt lat="42.69893" lon="1.40766">
        <ele>1854.04</ele>
        <time>2015-09-05T13:10:29Z</time>
      </trkpt>
      <trkpt lat="42.6989" lon="1.40769">
        <ele>1856.92</ele>
        <time>2015-09-05T13:10:40Z</time>
      </trkpt>
      <trkpt lat="42.69888" lon="1.40767">
        <ele>1857.89</ele>
        <time>2015-09-05T13:10:51Z</time>
      </trkpt>
      <trkpt lat="42.69886" lon="1.40771">
        <ele>1860.29</ele>
        <time>2015-09-05T13:11:02Z</time>
      </trkpt>
      <trkpt lat="42.69882" lon="1.40771">
        <ele>1862.21</ele>
        <time>2015-09-05T13:11:14Z</time>
      </trkpt>
      <trkpt lat="42.69879" lon="1.40769">
        <ele>1863.65</ele>
        <time>2015-09-05T13:11:26Z</time>
      </trkpt>
      <trkpt lat="42.69875" lon="1.40768">
        <ele>1866.06</ele>
        <time>2015-09-05T13:11:37Z</time>
      </trkpt>
      <trkpt lat="42.6987" lon="1.40768">
        <ele>1867.5</ele>
        <time>2015-09-05T13:11:50Z</time>
      </trkpt>
      <trkpt lat="42.69864" lon="1.40767">
        <ele>1869.9</ele>
        <time>2015-09-05T13:12:04Z</time>
      </trkpt>
      <trkpt lat="42.6986" lon="1.40769">
        <ele>1871.34</ele>
        <time>2015-09-05T13:12:15Z</time>
      </trkpt>
      <trkpt lat="42.69855" lon="1.40768">
        <ele>1873.75</ele>
        <time>2015-09-05T13:12:28Z</time>
      </trkpt>
      <trkpt lat="42.69851" lon="1.40769">
        <ele>1875.19</ele>
        <time>2015-09-05T13:12:39Z</time>
      </trkpt>
      <trkpt lat="42.69848" lon="1.40772">
        <ele>1877.11</ele>
        <time>2015-09-05T13:12:50Z</time>
      </trkpt>
      <trkpt lat="42.69845" lon="1.40774">
        <ele>1878.55</ele>
        <time>2015-09-05T13:13:05Z</time>
      </trkpt>
      <trkpt lat="42.69846" lon="1.40775">
        <ele>1883.36</ele>
        <time>2015-09-05T13:13:32Z</time>
      </trkpt>
      <trkpt lat="42.69847" lon="1.40776">
        <ele>1883.84</ele>
        <time>2015-09-05T13:14:01Z</time>
      </trkpt>
      <trkpt lat="42.69847" lon="1.40776">
        <ele>1882.88</ele>
        <time>2015-09-05T13:14:32Z</time>
      </trkpt>
      <trkpt lat="42.69847" lon="1.40777">
        <ele>1882.88</ele>
        <time>2015-09-05T13:15:00Z</time>
      </trkpt>
      <trkpt lat="42.69843" lon="1.40777">
        <ele>1881.92</ele>
        <time>2015-09-05T13:15:12Z</time>
      </trkpt>
      <trkpt lat="42.69839" lon="1.40779">
        <ele>1881.92</ele>
        <time>2015-09-05T13:15:25Z</time>
      </trkpt>
      <trkpt lat="42.69834" lon="1.4078">
        <ele>1882.88</ele>
        <time>2015-09-05T13:15:37Z</time>
      </trkpt>
      <trkpt lat="42.6983" lon="1.40782">
        <ele>1885.28</ele>
        <time>2015-09-05T13:15:49Z</time>
      </trkpt>
      <trkpt lat="42.69826" lon="1.40783">
        <ele>1887.69</ele>
        <time>2015-09-05T13:16:03Z</time>
      </trkpt>
      <trkpt lat="42.69825" lon="1.40783">
        <ele>1887.69</ele>
        <time>2015-09-05T13:16:07Z</time>
      </trkpt>
      <trkpt lat="42.69821" lon="1.40786">
        <ele>1889.61</ele>
        <time>2015-09-05T13:16:20Z</time>
      </trkpt>
      <trkpt lat="42.69817" lon="1.40788">
        <ele>1891.05</ele>
        <time>2015-09-05T13:16:34Z</time>
      </trkpt>
      <trkpt lat="42.69815" lon="1.40794">
        <ele>1892.49</ele>
        <time>2015-09-05T13:16:46Z</time>
      </trkpt>
      <trkpt lat="42.69812" lon="1.40798">
        <ele>1893.45</ele>
        <time>2015-09-05T13:16:59Z</time>
      </trkpt>
      <trkpt lat="42.6981" lon="1.40797">
        <ele>1893.93</ele>
        <time>2015-09-05T13:17:02Z</time>
      </trkpt>
      <trkpt lat="42.69806" lon="1.40801">
        <ele>1895.86</ele>
        <time>2015-09-05T13:17:14Z</time>
      </trkpt>
      <trkpt lat="42.698" lon="1.40803">
        <ele>1897.78</ele>
        <time>2015-09-05T13:17:25Z</time>
      </trkpt>
      <trkpt lat="42.69796" lon="1.40805">
        <ele>1900.66</ele>
        <time>2015-09-05T13:17:34Z</time>
      </trkpt>
      <trkpt lat="42.69791" lon="1.40807">
        <ele>1902.11</ele>
        <time>2015-09-05T13:17:46Z</time>
      </trkpt>
      <trkpt lat="42.69787" lon="1.40808">
        <ele>1903.55</ele>
        <time>2015-09-05T13:17:56Z</time>
      </trkpt>
      <trkpt lat="42.69782" lon="1.40811">
        <ele>1906.43</ele>
        <time>2015-09-05T13:18:09Z</time>
      </trkpt>
      <trkpt lat="42.69778" lon="1.40813">
        <ele>1907.87</ele>
        <time>2015-09-05T13:18:20Z</time>
      </trkpt>
      <trkpt lat="42.69773" lon="1.40812">
        <ele>1910.28</ele>
        <time>2015-09-05T13:18:33Z</time>
      </trkpt>
      <trkpt lat="42.69768" lon="1.40812">
        <ele>1912.68</ele>
        <time>2015-09-05T13:18:46Z</time>
      </trkpt>
      <trkpt lat="42.69763" lon="1.40812">
        <ele>1914.6</ele>
        <time>2015-09-05T13:18:58Z</time>
      </trkpt>
      <trkpt lat="42.69757" lon="1.4081">
        <ele>1916.04</ele>
        <time>2015-09-05T13:19:10Z</time>
      </trkpt>
      <trkpt lat="42.6975" lon="1.40809">
        <ele>1918.45</ele>
        <time>2015-09-05T13:19:23Z</time>
      </trkpt>
      <trkpt lat="42.69745" lon="1.40808">
        <ele>1920.85</ele>
        <time>2015-09-05T13:19:34Z</time>
      </trkpt>
      <trkpt lat="42.69742" lon="1.40806">
        <ele>1922.77</ele>
        <time>2015-09-05T13:19:46Z</time>
      </trkpt>
      <trkpt lat="42.69736" lon="1.40802">
        <ele>1925.18</ele>
        <time>2015-09-05T13:19:57Z</time>
      </trkpt>
      <trkpt lat="42.69732" lon="1.40802">
        <ele>1926.14</ele>
        <time>2015-09-05T13:20:06Z</time>
      </trkpt>
      <trkpt lat="42.69729" lon="1.40802">
        <ele>1927.58</ele>
        <time>2015-09-05T13:20:11Z</time>
      </trkpt>
      <trkpt lat="42.69722" lon="1.40802">
        <ele>1929.98</ele>
        <time>2015-09-05T13:20:22Z</time>
      </trkpt>
      <trkpt lat="42.69719" lon="1.40803">
        <ele>1931.91</ele>
        <time>2015-09-05T13:20:32Z</time>
      </trkpt>
      <trkpt lat="42.69713" lon="1.40803">
        <ele>1932.87</ele>
        <time>2015-09-05T13:20:42Z</time>
      </trkpt>
      <trkpt lat="42.69708" lon="1.40802">
        <ele>1933.35</ele>
        <time>2015-09-05T13:20:50Z</time>
      </trkpt>
      <trkpt lat="42.69706" lon="1.40799">
        <ele>1932.87</ele>
        <time>2015-09-05T13:21:01Z</time>
      </trkpt>
      <trkpt lat="42.69704" lon="1.40796">
        <ele>1932.87</ele>
        <time>2015-09-05T13:21:04Z</time>
      </trkpt>
      <trkpt lat="42.69702" lon="1.40783">
        <ele>1933.35</ele>
        <time>2015-09-05T13:21:17Z</time>
      </trkpt>
      <trkpt lat="42.69702" lon="1.4078">
        <ele>1933.35</ele>
        <time>2015-09-05T13:21:22Z</time>
      </trkpt>
      <trkpt lat="42.69697" lon="1.4077">
        <ele>1933.35</ele>
        <time>2015-09-05T13:21:32Z</time>
      </trkpt>
      <trkpt lat="42.69696" lon="1.40766">
        <ele>1933.35</ele>
        <time>2015-09-05T13:21:36Z</time>
      </trkpt>
      <trkpt lat="42.69691" lon="1.40752">
        <ele>1932.87</ele>
        <time>2015-09-05T13:21:49Z</time>
      </trkpt>
      <trkpt lat="42.6969" lon="1.40744">
        <ele>1932.39</ele>
        <time>2015-09-05T13:22:01Z</time>
      </trkpt>
      <trkpt lat="42.69691" lon="1.4073">
        <ele>1934.31</ele>
        <time>2015-09-05T13:22:10Z</time>
      </trkpt>
      <trkpt lat="42.6969" lon="1.40716">
        <ele>1935.27</ele>
        <time>2015-09-05T13:22:21Z</time>
      </trkpt>
      <trkpt lat="42.69687" lon="1.40708">
        <ele>1934.79</ele>
        <time>2015-09-05T13:22:27Z</time>
      </trkpt>
      <trkpt lat="42.69682" lon="1.40699">
        <ele>1934.31</ele>
        <time>2015-09-05T13:22:41Z</time>
      </trkpt>
      <trkpt lat="42.69672" lon="1.40689">
        <ele>1932.87</ele>
        <time>2015-09-05T13:22:53Z</time>
      </trkpt>
      <trkpt lat="42.69661" lon="1.40681">
        <ele>1932.39</ele>
        <time>2015-09-05T13:23:03Z</time>
      </trkpt>
      <trkpt lat="42.69654" lon="1.40673">
        <ele>1933.83</ele>
        <time>2015-09-05T13:23:14Z</time>
      </trkpt>
      <trkpt lat="42.69651" lon="1.40669">
        <ele>1934.79</ele>
        <time>2015-09-05T13:23:19Z</time>
      </trkpt>
      <trkpt lat="42.69648" lon="1.40667">
        <ele>1935.27</ele>
        <time>2015-09-05T13:23:23Z</time>
      </trkpt>
      <trkpt lat="42.69641" lon="1.40663">
        <ele>1933.83</ele>
        <time>2015-09-05T13:23:32Z</time>
      </trkpt>
      <trkpt lat="42.69636" lon="1.40661">
        <ele>1933.83</ele>
        <time>2015-09-05T13:23:37Z</time>
      </trkpt>
      <trkpt lat="42.69632" lon="1.40661">
        <ele>1933.35</ele>
        <time>2015-09-05T13:23:41Z</time>
      </trkpt>
      <trkpt lat="42.69628" lon="1.40656">
        <ele>1933.35</ele>
        <time>2015-09-05T13:23:51Z</time>
      </trkpt>
      <trkpt lat="42.69628" lon="1.4065">
        <ele>1935.27</ele>
        <time>2015-09-05T13:24:02Z</time>
      </trkpt>
      <trkpt lat="42.69627" lon="1.40643">
        <ele>1934.79</ele>
        <time>2015-09-05T13:24:10Z</time>
      </trkpt>
      <trkpt lat="42.69627" lon="1.40638">
        <ele>1934.79</ele>
        <time>2015-09-05T13:24:14Z</time>
      </trkpt>
      <trkpt lat="42.69629" lon="1.40627">
        <ele>1934.79</ele>
        <time>2015-09-05T13:24:25Z</time>
      </trkpt>
      <trkpt lat="42.69627" lon="1.40612">
        <ele>1933.35</ele>
        <time>2015-09-05T13:24:36Z</time>
      </trkpt>
      <trkpt lat="42.69627" lon="1.40608">
        <ele>1932.39</ele>
        <time>2015-09-05T13:24:40Z</time>
      </trkpt>
      <trkpt lat="42.69628" lon="1.40596">
        <ele>1932.39</ele>
        <time>2015-09-05T13:24:52Z</time>
      </trkpt>
      <trkpt lat="42.69635" lon="1.40586">
        <ele>1932.39</ele>
        <time>2015-09-05T13:25:04Z</time>
      </trkpt>
      <trkpt lat="42.69637" lon="1.40581">
        <ele>1932.87</ele>
        <time>2015-09-05T13:25:18Z</time>
      </trkpt>
      <trkpt lat="42.69639" lon="1.40577">
        <ele>1932.87</ele>
        <time>2015-09-05T13:25:30Z</time>
      </trkpt>
      <trkpt lat="42.69638" lon="1.40569">
        <ele>1932.39</ele>
        <time>2015-09-05T13:25:39Z</time>
      </trkpt>
      <trkpt lat="42.69636" lon="1.40563">
        <ele>1934.31</ele>
        <time>2015-09-05T13:25:50Z</time>
      </trkpt>
      <trkpt lat="42.6963" lon="1.40556">
        <ele>1935.75</ele>
        <time>2015-09-05T13:26:01Z</time>
      </trkpt>
      <trkpt lat="42.69624" lon="1.4055">
        <ele>1938.16</ele>
        <time>2015-09-05T13:26:13Z</time>
      </trkpt>
      <trkpt lat="42.6962" lon="1.40548">
        <ele>1938.64</ele>
        <time>2015-09-05T13:26:24Z</time>
      </trkpt>
      <trkpt lat="42.69618" lon="1.40547">
        <ele>1939.6</ele>
        <time>2015-09-05T13:26:35Z</time>
      </trkpt>
      <trkpt lat="42.69615" lon="1.40545">
        <ele>1941.52</ele>
        <time>2015-09-05T13:26:45Z</time>
      </trkpt>
      <trkpt lat="42.6961" lon="1.40543">
        <ele>1945.85</ele>
        <time>2015-09-05T13:26:56Z</time>
      </trkpt>
      <trkpt lat="42.69607" lon="1.4054">
        <ele>1948.25</ele>
        <time>2015-09-05T13:27:08Z</time>
      </trkpt>
      <trkpt lat="42.69605" lon="1.40533">
        <ele>1948.25</ele>
        <time>2015-09-05T13:27:19Z</time>
      </trkpt>
      <trkpt lat="42.69605" lon="1.40533">
        <ele>1949.21</ele>
        <time>2015-09-05T13:27:48Z</time>
      </trkpt>
      <trkpt lat="42.69605" lon="1.40532">
        <ele>1949.69</ele>
        <time>2015-09-05T13:28:19Z</time>
      </trkpt>
      <trkpt lat="42.69604" lon="1.40533">
        <ele>1949.69</ele>
        <time>2015-09-05T13:28:55Z</time>
      </trkpt>
      <trkpt lat="42.69603" lon="1.40535">
        <ele>1950.65</ele>
        <time>2015-09-05T13:29:13Z</time>
      </trkpt>
      <trkpt lat="42.69601" lon="1.40534">
        <ele>1952.09</ele>
        <time>2015-09-05T13:29:22Z</time>
      </trkpt>
      <trkpt lat="42.69598" lon="1.40542">
        <ele>1955.46</ele>
        <time>2015-09-05T13:29:34Z</time>
      </trkpt>
      <trkpt lat="42.69595" lon="1.40542">
        <ele>1957.38</ele>
        <time>2015-09-05T13:29:44Z</time>
      </trkpt>
      <trkpt lat="42.69594" lon="1.40549">
        <ele>1960.75</ele>
        <time>2015-09-05T13:29:55Z</time>
      </trkpt>
      <trkpt lat="42.69594" lon="1.40553">
        <ele>1962.19</ele>
        <time>2015-09-05T13:30:05Z</time>
      </trkpt>
      <trkpt lat="42.69593" lon="1.40556">
        <ele>1963.15</ele>
        <time>2015-09-05T13:30:22Z</time>
      </trkpt>
      <trkpt lat="42.69592" lon="1.40557">
        <ele>1963.15</ele>
        <time>2015-09-05T13:30:36Z</time>
      </trkpt>
      <trkpt lat="42.6959" lon="1.40556">
        <ele>1963.15</ele>
        <time>2015-09-05T13:30:50Z</time>
      </trkpt>
      <trkpt lat="42.6959" lon="1.40556">
        <ele>1964.11</ele>
        <time>2015-09-05T13:31:12Z</time>
      </trkpt>
      <trkpt lat="42.6959" lon="1.40556">
        <ele>1964.59</ele>
        <time>2015-09-05T13:31:26Z</time>
      </trkpt>
      <trkpt lat="42.69588" lon="1.40549">
        <ele>1966.03</ele>
        <time>2015-09-05T13:31:37Z</time>
      </trkpt>
      <trkpt lat="42.69584" lon="1.40543">
        <ele>1966.51</ele>
        <time>2015-09-05T13:31:47Z</time>
      </trkpt>
      <trkpt lat="42.69583" lon="1.40548">
        <ele>1968.44</ele>
        <time>2015-09-05T13:31:58Z</time>
      </trkpt>
      <trkpt lat="42.6958" lon="1.40547">
        <ele>1968.92</ele>
        <time>2015-09-05T13:32:10Z</time>
      </trkpt>
      <trkpt lat="42.69577" lon="1.40539">
        <ele>1970.36</ele>
        <time>2015-09-05T13:32:19Z</time>
      </trkpt>
      <trkpt lat="42.69571" lon="1.40537">
        <ele>1971.8</ele>
        <time>2015-09-05T13:32:31Z</time>
      </trkpt>
      <trkpt lat="42.69566" lon="1.40543">
        <ele>1973.72</ele>
        <time>2015-09-05T13:32:43Z</time>
      </trkpt>
      <trkpt lat="42.69565" lon="1.40548">
        <ele>1977.09</ele>
        <time>2015-09-05T13:32:55Z</time>
      </trkpt>
      <trkpt lat="42.69559" lon="1.40548">
        <ele>1979.01</ele>
        <time>2015-09-05T13:33:06Z</time>
      </trkpt>
      <trkpt lat="42.69554" lon="1.40551">
        <ele>1981.9</ele>
        <time>2015-09-05T13:33:17Z</time>
      </trkpt>
      <trkpt lat="42.69551" lon="1.4055">
        <ele>1984.3</ele>
        <time>2015-09-05T13:33:27Z</time>
      </trkpt>
      <trkpt lat="42.6955" lon="1.4055">
        <ele>1984.3</ele>
        <time>2015-09-05T13:33:31Z</time>
      </trkpt>
      <trkpt lat="42.69545" lon="1.40546">
        <ele>1988.14</ele>
        <time>2015-09-05T13:33:43Z</time>
      </trkpt>
      <trkpt lat="42.69542" lon="1.40545">
        <ele>1989.59</ele>
        <time>2015-09-05T13:33:53Z</time>
      </trkpt>
      <trkpt lat="42.69541" lon="1.40544">
        <ele>1991.03</ele>
        <time>2015-09-05T13:34:03Z</time>
      </trkpt>
      <trkpt lat="42.69536" lon="1.40543">
        <ele>1991.99</ele>
        <time>2015-09-05T13:34:14Z</time>
      </trkpt>
      <trkpt lat="42.69531" lon="1.40544">
        <ele>1992.95</ele>
        <time>2015-09-05T13:34:25Z</time>
      </trkpt>
      <trkpt lat="42.69526" lon="1.4054">
        <ele>1994.39</ele>
        <time>2015-09-05T13:34:37Z</time>
      </trkpt>
      <trkpt lat="42.69526" lon="1.40541">
        <ele>1994.87</ele>
        <time>2015-09-05T13:34:38Z</time>
      </trkpt>
      <trkpt lat="42.69522" lon="1.40542">
        <ele>1996.8</ele>
        <time>2015-09-05T13:34:50Z</time>
      </trkpt>
      <trkpt lat="42.69518" lon="1.40541">
        <ele>1997.76</ele>
        <time>2015-09-05T13:35:00Z</time>
      </trkpt>
      <trkpt lat="42.69515" lon="1.40544">
        <ele>2000.16</ele>
        <time>2015-09-05T13:35:11Z</time>
      </trkpt>
      <trkpt lat="42.6951" lon="1.40544">
        <ele>2001.12</ele>
        <time>2015-09-05T13:35:21Z</time>
      </trkpt>
      <trkpt lat="42.6951" lon="1.40545">
        <ele>2003.04</ele>
        <time>2015-09-05T13:35:50Z</time>
      </trkpt>
      <trkpt lat="42.6951" lon="1.40545">
        <ele>2004.01</ele>
        <time>2015-09-05T13:36:22Z</time>
      </trkpt>
      <trkpt lat="42.6951" lon="1.40545">
        <ele>2004.49</ele>
        <time>2015-09-05T13:36:53Z</time>
      </trkpt>
      <trkpt lat="42.6951" lon="1.40544">
        <ele>2004.97</ele>
        <time>2015-09-05T13:37:22Z</time>
      </trkpt>
      <trkpt lat="42.6951" lon="1.40544">
        <ele>2004.97</ele>
        <time>2015-09-05T13:37:56Z</time>
      </trkpt>
      <trkpt lat="42.6951" lon="1.40544">
        <ele>2004.49</ele>
        <time>2015-09-05T13:38:25Z</time>
      </trkpt>
      <trkpt lat="42.69511" lon="1.40543">
        <ele>2004.49</ele>
        <time>2015-09-05T13:38:55Z</time>
      </trkpt>
      <trkpt lat="42.69509" lon="1.40545">
        <ele>2005.45</ele>
        <time>2015-09-05T13:39:10Z</time>
      </trkpt>
      <trkpt lat="42.69509" lon="1.40542">
        <ele>2005.93</ele>
        <time>2015-09-05T13:39:24Z</time>
      </trkpt>
      <trkpt lat="42.69507" lon="1.40539">
        <ele>2006.41</ele>
        <time>2015-09-05T13:39:49Z</time>
      </trkpt>
      <trkpt lat="42.695" lon="1.4054">
        <ele>2007.85</ele>
        <time>2015-09-05T13:40:00Z</time>
      </trkpt>
      <trkpt lat="42.69495" lon="1.40538">
        <ele>2009.77</ele>
        <time>2015-09-05T13:40:09Z</time>
      </trkpt>
      <trkpt lat="42.69492" lon="1.40538">
        <ele>2010.73</ele>
        <time>2015-09-05T13:40:12Z</time>
      </trkpt>
      <trkpt lat="42.69486" lon="1.40537">
        <ele>2012.66</ele>
        <time>2015-09-05T13:40:24Z</time>
      </trkpt>
      <trkpt lat="42.69483" lon="1.40535">
        <ele>2014.1</ele>
        <time>2015-09-05T13:40:33Z</time>
      </trkpt>
      <trkpt lat="42.6948" lon="1.40532">
        <ele>2015.54</ele>
        <time>2015-09-05T13:40:46Z</time>
      </trkpt>
      <trkpt lat="42.69474" lon="1.40534">
        <ele>2018.43</ele>
        <time>2015-09-05T13:40:59Z</time>
      </trkpt>
      <trkpt lat="42.69472" lon="1.40532">
        <ele>2020.83</ele>
        <time>2015-09-05T13:41:04Z</time>
      </trkpt>
      <trkpt lat="42.69468" lon="1.40527">
        <ele>2025.15</ele>
        <time>2015-09-05T13:41:17Z</time>
      </trkpt>
      <trkpt lat="42.69464" lon="1.40526">
        <ele>2027.56</ele>
        <time>2015-09-05T13:41:31Z</time>
      </trkpt>
      <trkpt lat="42.69462" lon="1.40527">
        <ele>2026.6</ele>
        <time>2015-09-05T13:41:43Z</time>
      </trkpt>
      <trkpt lat="42.6946" lon="1.40525">
        <ele>2027.56</ele>
        <time>2015-09-05T13:41:48Z</time>
      </trkpt>
      <trkpt lat="42.69454" lon="1.40523">
        <ele>2029</ele>
        <time>2015-09-05T13:42:01Z</time>
      </trkpt>
      <trkpt lat="42.69447" lon="1.40522">
        <ele>2030.92</ele>
        <time>2015-09-05T13:42:14Z</time>
      </trkpt>
      <trkpt lat="42.69442" lon="1.4052">
        <ele>2032.36</ele>
        <time>2015-09-05T13:42:26Z</time>
      </trkpt>
      <trkpt lat="42.69436" lon="1.40519">
        <ele>2034.29</ele>
        <time>2015-09-05T13:42:39Z</time>
      </trkpt>
      <trkpt lat="42.69427" lon="1.40514">
        <ele>2036.21</ele>
        <time>2015-09-05T13:42:52Z</time>
      </trkpt>
      <trkpt lat="42.69425" lon="1.40513">
        <ele>2036.21</ele>
        <time>2015-09-05T13:42:55Z</time>
      </trkpt>
      <trkpt lat="42.69416" lon="1.40503">
        <ele>2036.21</ele>
        <time>2015-09-05T13:43:08Z</time>
      </trkpt>
      <trkpt lat="42.69406" lon="1.40496">
        <ele>2036.69</ele>
        <time>2015-09-05T13:43:19Z</time>
      </trkpt>
      <trkpt lat="42.69403" lon="1.40493">
        <ele>2037.17</ele>
        <time>2015-09-05T13:43:23Z</time>
      </trkpt>
      <trkpt lat="42.69397" lon="1.40485">
        <ele>2037.17</ele>
        <time>2015-09-05T13:43:33Z</time>
      </trkpt>
      <trkpt lat="42.69392" lon="1.40481">
        <ele>2037.17</ele>
        <time>2015-09-05T13:43:39Z</time>
      </trkpt>
      <trkpt lat="42.69382" lon="1.40469">
        <ele>2037.65</ele>
        <time>2015-09-05T13:43:52Z</time>
      </trkpt>
      <trkpt lat="42.69376" lon="1.40455">
        <ele>2038.61</ele>
        <time>2015-09-05T13:44:04Z</time>
      </trkpt>
      <trkpt lat="42.69372" lon="1.40448">
        <ele>2038.61</ele>
        <time>2015-09-05T13:44:11Z</time>
      </trkpt>
      <trkpt lat="42.69362" lon="1.40442">
        <ele>2039.09</ele>
        <time>2015-09-05T13:44:24Z</time>
      </trkpt>
      <trkpt lat="42.69361" lon="1.4044">
        <ele>2039.09</ele>
        <time>2015-09-05T13:44:27Z</time>
      </trkpt>
      <trkpt lat="42.69356" lon="1.40433">
        <ele>2039.57</ele>
        <time>2015-09-05T13:44:38Z</time>
      </trkpt>
      <trkpt lat="42.69353" lon="1.40429">
        <ele>2041.02</ele>
        <time>2015-09-05T13:44:49Z</time>
      </trkpt>
      <trkpt lat="42.6935" lon="1.40426">
        <ele>2041.5</ele>
        <time>2015-09-05T13:44:58Z</time>
      </trkpt>
      <trkpt lat="42.69347" lon="1.40424">
        <ele>2041.98</ele>
        <time>2015-09-05T13:45:09Z</time>
      </trkpt>
      <trkpt lat="42.69345" lon="1.4042">
        <ele>2042.94</ele>
        <time>2015-09-05T13:45:17Z</time>
      </trkpt>
      <trkpt lat="42.69344" lon="1.40412">
        <ele>2044.86</ele>
        <time>2015-09-05T13:45:29Z</time>
      </trkpt>
      <trkpt lat="42.69341" lon="1.40406">
        <ele>2047.26</ele>
        <time>2015-09-05T13:45:39Z</time>
      </trkpt>
      <trkpt lat="42.6934" lon="1.40405">
        <ele>2047.75</ele>
        <time>2015-09-05T13:45:42Z</time>
      </trkpt>
      <trkpt lat="42.69338" lon="1.40402">
        <ele>2047.75</ele>
        <time>2015-09-05T13:45:48Z</time>
      </trkpt>
      <trkpt lat="42.69337" lon="1.40393">
        <ele>2048.71</ele>
        <time>2015-09-05T13:45:58Z</time>
      </trkpt>
      <trkpt lat="42.69332" lon="1.4039">
        <ele>2050.15</ele>
        <time>2015-09-05T13:46:09Z</time>
      </trkpt>
      <trkpt lat="42.69329" lon="1.40388">
        <ele>2051.11</ele>
        <time>2015-09-05T13:46:15Z</time>
      </trkpt>
      <trkpt lat="42.69327" lon="1.40383">
        <ele>2053.51</ele>
        <time>2015-09-05T13:46:23Z</time>
      </trkpt>
      <trkpt lat="42.69325" lon="1.40377">
        <ele>2054.47</ele>
        <time>2015-09-05T13:46:31Z</time>
      </trkpt>
      <trkpt lat="42.69325" lon="1.40375">
        <ele>2054.96</ele>
        <time>2015-09-05T13:46:34Z</time>
      </trkpt>
      <trkpt lat="42.69324" lon="1.40366">
        <ele>2055.92</ele>
        <time>2015-09-05T13:46:45Z</time>
      </trkpt>
      <trkpt lat="42.69324" lon="1.40362">
        <ele>2056.4</ele>
        <time>2015-09-05T13:46:50Z</time>
      </trkpt>
      <trkpt lat="42.69324" lon="1.40361">
        <ele>2057.36</ele>
        <time>2015-09-05T13:46:54Z</time>
      </trkpt>
      <trkpt lat="42.69324" lon="1.40353">
        <ele>2059.28</ele>
        <time>2015-09-05T13:47:04Z</time>
      </trkpt>
      <trkpt lat="42.69323" lon="1.40344">
        <ele>2061.2</ele>
        <time>2015-09-05T13:47:14Z</time>
      </trkpt>
      <trkpt lat="42.69323" lon="1.40341">
        <ele>2061.68</ele>
        <time>2015-09-05T13:47:18Z</time>
      </trkpt>
      <trkpt lat="42.6932" lon="1.40337">
        <ele>2062.65</ele>
        <time>2015-09-05T13:47:29Z</time>
      </trkpt>
      <trkpt lat="42.69318" lon="1.40332">
        <ele>2063.13</ele>
        <time>2015-09-05T13:47:38Z</time>
      </trkpt>
      <trkpt lat="42.69318" lon="1.40328">
        <ele>2063.61</ele>
        <time>2015-09-05T13:47:42Z</time>
      </trkpt>
      <trkpt lat="42.69317" lon="1.40324">
        <ele>2064.09</ele>
        <time>2015-09-05T13:47:47Z</time>
      </trkpt>
      <trkpt lat="42.69314" lon="1.40313">
        <ele>2065.05</ele>
        <time>2015-09-05T13:47:59Z</time>
      </trkpt>
      <trkpt lat="42.69314" lon="1.40303">
        <ele>2064.57</ele>
        <time>2015-09-05T13:48:10Z</time>
      </trkpt>
      <trkpt lat="42.69312" lon="1.40296">
        <ele>2066.01</ele>
        <time>2015-09-05T13:48:22Z</time>
      </trkpt>
      <trkpt lat="42.69309" lon="1.4029">
        <ele>2067.93</ele>
        <time>2015-09-05T13:48:33Z</time>
      </trkpt>
      <trkpt lat="42.69306" lon="1.40286">
        <ele>2069.38</ele>
        <time>2015-09-05T13:48:43Z</time>
      </trkpt>
      <trkpt lat="42.69304" lon="1.40283">
        <ele>2070.82</ele>
        <time>2015-09-05T13:48:54Z</time>
      </trkpt>
      <trkpt lat="42.69301" lon="1.4028">
        <ele>2072.26</ele>
        <time>2015-09-05T13:49:06Z</time>
      </trkpt>
      <trkpt lat="42.69297" lon="1.40279">
        <ele>2075.14</ele>
        <time>2015-09-05T13:49:18Z</time>
      </trkpt>
      <trkpt lat="42.69293" lon="1.40277">
        <ele>2076.1</ele>
        <time>2015-09-05T13:49:31Z</time>
      </trkpt>
      <trkpt lat="42.69287" lon="1.40278">
        <ele>2078.03</ele>
        <time>2015-09-05T13:49:45Z</time>
      </trkpt>
      <trkpt lat="42.69284" lon="1.40274">
        <ele>2080.43</ele>
        <time>2015-09-05T13:49:56Z</time>
      </trkpt>
      <trkpt lat="42.69278" lon="1.40273">
        <ele>2081.87</ele>
        <time>2015-09-05T13:50:09Z</time>
      </trkpt>
      <trkpt lat="42.69271" lon="1.40275">
        <ele>2083.79</ele>
        <time>2015-09-05T13:50:23Z</time>
      </trkpt>
      <trkpt lat="42.69271" lon="1.40272">
        <ele>2085.72</ele>
        <time>2015-09-05T13:50:32Z</time>
      </trkpt>
      <trkpt lat="42.69274" lon="1.40268">
        <ele>2086.68</ele>
        <time>2015-09-05T13:50:41Z</time>
      </trkpt>
      <trkpt lat="42.69279" lon="1.40258">
        <ele>2087.16</ele>
        <time>2015-09-05T13:50:54Z</time>
      </trkpt>
      <trkpt lat="42.69281" lon="1.40252">
        <ele>2090.04</ele>
        <time>2015-09-05T13:51:06Z</time>
      </trkpt>
      <trkpt lat="42.69282" lon="1.40251">
        <ele>2091</ele>
        <time>2015-09-05T13:51:09Z</time>
      </trkpt>
      <trkpt lat="42.69279" lon="1.40247">
        <ele>2093.41</ele>
        <time>2015-09-05T13:51:15Z</time>
      </trkpt>
      <trkpt lat="42.69274" lon="1.40239">
        <ele>2095.81</ele>
        <time>2015-09-05T13:51:25Z</time>
      </trkpt>
      <trkpt lat="42.69268" lon="1.40234">
        <ele>2098.21</ele>
        <time>2015-09-05T13:51:36Z</time>
      </trkpt>
      <trkpt lat="42.69263" lon="1.40224">
        <ele>2099.18</ele>
        <time>2015-09-05T13:51:47Z</time>
      </trkpt>
      <trkpt lat="42.69259" lon="1.4022">
        <ele>2098.7</ele>
        <time>2015-09-05T13:51:59Z</time>
      </trkpt>
      <trkpt lat="42.69255" lon="1.40217">
        <ele>2100.14</ele>
        <time>2015-09-05T13:52:12Z</time>
      </trkpt>
      <trkpt lat="42.69251" lon="1.40213">
        <ele>2103.02</ele>
        <time>2015-09-05T13:52:24Z</time>
      </trkpt>
      <trkpt lat="42.69248" lon="1.40208">
        <ele>2105.91</ele>
        <time>2015-09-05T13:52:36Z</time>
      </trkpt>
      <trkpt lat="42.69244" lon="1.40202">
        <ele>2109.75</ele>
        <time>2015-09-05T13:52:47Z</time>
      </trkpt>
      <trkpt lat="42.69241" lon="1.40201">
        <ele>2111.19</ele>
        <time>2015-09-05T13:53:03Z</time>
      </trkpt>
      <trkpt lat="42.69242" lon="1.402">
        <ele>2111.19</ele>
        <time>2015-09-05T13:53:25Z</time>
      </trkpt>
      <trkpt lat="42.69241" lon="1.40199">
        <ele>2112.15</ele>
        <time>2015-09-05T13:53:56Z</time>
      </trkpt>
      <trkpt lat="42.69235" lon="1.40194">
        <ele>2112.63</ele>
        <time>2015-09-05T13:54:08Z</time>
      </trkpt>
      <trkpt lat="42.69234" lon="1.40197">
        <ele>2113.6</ele>
        <time>2015-09-05T13:54:15Z</time>
      </trkpt>
      <trkpt lat="42.69234" lon="1.40204">
        <ele>2114.56</ele>
        <time>2015-09-05T13:54:26Z</time>
      </trkpt>
      <trkpt lat="42.69234" lon="1.40204">
        <ele>2115.52</ele>
        <time>2015-09-05T13:54:38Z</time>
      </trkpt>
      <trkpt lat="42.69229" lon="1.40201">
        <ele>2116.48</ele>
        <time>2015-09-05T13:54:48Z</time>
      </trkpt>
      <trkpt lat="42.69227" lon="1.40193">
        <ele>2118.88</ele>
        <time>2015-09-05T13:55:00Z</time>
      </trkpt>
      <trkpt lat="42.69224" lon="1.40187">
        <ele>2119.84</ele>
        <time>2015-09-05T13:55:11Z</time>
      </trkpt>
      <trkpt lat="42.69221" lon="1.4018">
        <ele>2120.81</ele>
        <time>2015-09-05T13:55:23Z</time>
      </trkpt>
      <trkpt lat="42.69218" lon="1.40175">
        <ele>2123.69</ele>
        <time>2015-09-05T13:55:33Z</time>
      </trkpt>
      <trkpt lat="42.69215" lon="1.40172">
        <ele>2124.65</ele>
        <time>2015-09-05T13:55:43Z</time>
      </trkpt>
      <trkpt lat="42.69214" lon="1.4017">
        <ele>2126.09</ele>
        <time>2015-09-05T13:55:55Z</time>
      </trkpt>
      <trkpt lat="42.69212" lon="1.40164">
        <ele>2128.98</ele>
        <time>2015-09-05T13:56:08Z</time>
      </trkpt>
      <trkpt lat="42.69209" lon="1.40156">
        <ele>2130.9</ele>
        <time>2015-09-05T13:56:19Z</time>
      </trkpt>
      <trkpt lat="42.69206" lon="1.40149">
        <ele>2132.34</ele>
        <time>2015-09-05T13:56:30Z</time>
      </trkpt>
      <trkpt lat="42.69202" lon="1.40145">
        <ele>2132.34</ele>
        <time>2015-09-05T13:56:40Z</time>
      </trkpt>
      <trkpt lat="42.69201" lon="1.40142">
        <ele>2133.78</ele>
        <time>2015-09-05T13:56:51Z</time>
      </trkpt>
      <trkpt lat="42.69199" lon="1.40136">
        <ele>2137.15</ele>
        <time>2015-09-05T13:57:05Z</time>
      </trkpt>
      <trkpt lat="42.69197" lon="1.40134">
        <ele>2138.11</ele>
        <time>2015-09-05T13:57:12Z</time>
      </trkpt>
      <trkpt lat="42.69196" lon="1.40129">
        <ele>2140.03</ele>
        <time>2015-09-05T13:57:26Z</time>
      </trkpt>
      <trkpt lat="42.69194" lon="1.40121">
        <ele>2142.92</ele>
        <time>2015-09-05T13:57:38Z</time>
      </trkpt>
      <trkpt lat="42.69192" lon="1.40111">
        <ele>2144.84</ele>
        <time>2015-09-05T13:57:50Z</time>
      </trkpt>
      <trkpt lat="42.69191" lon="1.40104">
        <ele>2146.76</ele>
        <time>2015-09-05T13:58:02Z</time>
      </trkpt>
      <trkpt lat="42.69189" lon="1.40101">
        <ele>2148.68</ele>
        <time>2015-09-05T13:58:12Z</time>
      </trkpt>
      <trkpt lat="42.69188" lon="1.40093">
        <ele>2151.09</ele>
        <time>2015-09-05T13:58:25Z</time>
      </trkpt>
      <trkpt lat="42.69184" lon="1.40084">
        <ele>2153.01</ele>
        <time>2015-09-05T13:58:36Z</time>
      </trkpt>
      <trkpt lat="42.69181" lon="1.4008">
        <ele>2153.01</ele>
        <time>2015-09-05T13:58:57Z</time>
      </trkpt>
      <trkpt lat="42.69182" lon="1.40081">
        <ele>2152.53</ele>
        <time>2015-09-05T13:59:17Z</time>
      </trkpt>
      <trkpt lat="42.69182" lon="1.40081">
        <ele>2153.01</ele>
        <time>2015-09-05T13:59:37Z</time>
      </trkpt>
      <trkpt lat="42.69179" lon="1.40079">
        <ele>2153.01</ele>
        <time>2015-09-05T14:00:07Z</time>
      </trkpt>
      <trkpt lat="42.69175" lon="1.40074">
        <ele>2155.41</ele>
        <time>2015-09-05T14:00:19Z</time>
      </trkpt>
      <trkpt lat="42.69173" lon="1.40069">
        <ele>2156.86</ele>
        <time>2015-09-05T14:00:30Z</time>
      </trkpt>
      <trkpt lat="42.69172" lon="1.40066">
        <ele>2157.82</ele>
        <time>2015-09-05T14:00:42Z</time>
      </trkpt>
      <trkpt lat="42.69171" lon="1.40058">
        <ele>2159.26</ele>
        <time>2015-09-05T14:00:54Z</time>
      </trkpt>
      <trkpt lat="42.69171" lon="1.40052">
        <ele>2161.66</ele>
        <time>2015-09-05T14:01:07Z</time>
      </trkpt>
      <trkpt lat="42.69173" lon="1.40044">
        <ele>2162.14</ele>
        <time>2015-09-05T14:01:17Z</time>
      </trkpt>
      <trkpt lat="42.69172" lon="1.40042">
        <ele>2162.62</ele>
        <time>2015-09-05T14:01:31Z</time>
      </trkpt>
      <trkpt lat="42.69173" lon="1.40041">
        <ele>2162.14</ele>
        <time>2015-09-05T14:02:02Z</time>
      </trkpt>
      <trkpt lat="42.69172" lon="1.4004">
        <ele>2162.62</ele>
        <time>2015-09-05T14:02:43Z</time>
      </trkpt>
      <trkpt lat="42.69171" lon="1.40038">
        <ele>2163.58</ele>
        <time>2015-09-05T14:02:56Z</time>
      </trkpt>
      <trkpt lat="42.69168" lon="1.4004">
        <ele>2164.55</ele>
        <time>2015-09-05T14:03:09Z</time>
      </trkpt>
      <trkpt lat="42.69167" lon="1.40037">
        <ele>2165.51</ele>
        <time>2015-09-05T14:03:21Z</time>
      </trkpt>
      <trkpt lat="42.69166" lon="1.40034">
        <ele>2166.95</ele>
        <time>2015-09-05T14:03:34Z</time>
      </trkpt>
      <trkpt lat="42.69164" lon="1.40033">
        <ele>2167.91</ele>
        <time>2015-09-05T14:03:56Z</time>
      </trkpt>
      <trkpt lat="42.69165" lon="1.40032">
        <ele>2168.87</ele>
        <time>2015-09-05T14:04:33Z</time>
      </trkpt>
      <trkpt lat="42.69162" lon="1.40028">
        <ele>2169.83</ele>
        <time>2015-09-05T14:05:06Z</time>
      </trkpt>
      <trkpt lat="42.69156" lon="1.40028">
        <ele>2171.76</ele>
        <time>2015-09-05T14:05:20Z</time>
      </trkpt>
      <trkpt lat="42.69155" lon="1.40028">
        <ele>2173.68</ele>
        <time>2015-09-05T14:05:31Z</time>
      </trkpt>
      <trkpt lat="42.69155" lon="1.40026">
        <ele>2174.64</ele>
        <time>2015-09-05T14:05:45Z</time>
      </trkpt>
      <trkpt lat="42.69156" lon="1.40022">
        <ele>2175.12</ele>
        <time>2015-09-05T14:05:56Z</time>
      </trkpt>
      <trkpt lat="42.69155" lon="1.40017">
        <ele>2177.04</ele>
        <time>2015-09-05T14:06:08Z</time>
      </trkpt>
      <trkpt lat="42.69157" lon="1.4001">
        <ele>2178.48</ele>
        <time>2015-09-05T14:06:19Z</time>
      </trkpt>
      <trkpt lat="42.69156" lon="1.40004">
        <ele>2179.45</ele>
        <time>2015-09-05T14:06:31Z</time>
      </trkpt>
      <trkpt lat="42.69155" lon="1.39999">
        <ele>2180.41</ele>
        <time>2015-09-05T14:06:44Z</time>
      </trkpt>
      <trkpt lat="42.69151" lon="1.40001">
        <ele>2181.37</ele>
        <time>2015-09-05T14:07:04Z</time>
      </trkpt>
      <trkpt lat="42.69147" lon="1.39999">
        <ele>2181.37</ele>
        <time>2015-09-05T14:07:19Z</time>
      </trkpt>
      <trkpt lat="42.69148" lon="1.39999">
        <ele>2181.37</ele>
        <time>2015-09-05T14:07:50Z</time>
      </trkpt>
      <trkpt lat="42.69149" lon="1.39999">
        <ele>2180.41</ele>
        <time>2015-09-05T14:08:23Z</time>
      </trkpt>
      <trkpt lat="42.69147" lon="1.4">
        <ele>2180.41</ele>
        <time>2015-09-05T14:08:54Z</time>
      </trkpt>
      <trkpt lat="42.69143" lon="1.39998">
        <ele>2181.85</ele>
        <time>2015-09-05T14:09:10Z</time>
      </trkpt>
      <trkpt lat="42.69141" lon="1.39992">
        <ele>2184.25</ele>
        <time>2015-09-05T14:09:20Z</time>
      </trkpt>
      <trkpt lat="42.69141" lon="1.39987">
        <ele>2185.69</ele>
        <time>2015-09-05T14:09:30Z</time>
      </trkpt>
      <trkpt lat="42.6914" lon="1.39981">
        <ele>2187.14</ele>
        <time>2015-09-05T14:09:35Z</time>
      </trkpt>
      <trkpt lat="42.69142" lon="1.39978">
        <ele>2187.62</ele>
        <time>2015-09-05T14:09:38Z</time>
      </trkpt>
      <trkpt lat="42.69147" lon="1.39964">
        <ele>2188.58</ele>
        <time>2015-09-05T14:09:50Z</time>
      </trkpt>
      <trkpt lat="42.69149" lon="1.39953">
        <ele>2190.5</ele>
        <time>2015-09-05T14:10:00Z</time>
      </trkpt>
      <trkpt lat="42.69149" lon="1.39951">
        <ele>2190.98</ele>
        <time>2015-09-05T14:10:03Z</time>
      </trkpt>
      <trkpt lat="42.6915" lon="1.39948">
        <ele>2191.94</ele>
        <time>2015-09-05T14:10:06Z</time>
      </trkpt>
      <trkpt lat="42.69152" lon="1.39934">
        <ele>2194.35</ele>
        <time>2015-09-05T14:10:18Z</time>
      </trkpt>
      <trkpt lat="42.69154" lon="1.39929">
        <ele>2195.79</ele>
        <time>2015-09-05T14:10:29Z</time>
      </trkpt>
      <trkpt lat="42.69151" lon="1.39925">
        <ele>2196.75</ele>
        <time>2015-09-05T14:10:40Z</time>
      </trkpt>
      <trkpt lat="42.69151" lon="1.39917">
        <ele>2197.71</ele>
        <time>2015-09-05T14:10:51Z</time>
      </trkpt>
      <trkpt lat="42.69151" lon="1.39907">
        <ele>2197.71</ele>
        <time>2015-09-05T14:11:02Z</time>
      </trkpt>
      <trkpt lat="42.6915" lon="1.39906">
        <ele>2197.71</ele>
        <time>2015-09-05T14:11:03Z</time>
      </trkpt>
      <trkpt lat="42.6915" lon="1.39902">
        <ele>2198.19</ele>
        <time>2015-09-05T14:11:06Z</time>
      </trkpt>
      <trkpt lat="42.69148" lon="1.39893">
        <ele>2198.67</ele>
        <time>2015-09-05T14:11:17Z</time>
      </trkpt>
      <trkpt lat="42.69146" lon="1.39889">
        <ele>2200.11</ele>
        <time>2015-09-05T14:11:22Z</time>
      </trkpt>
      <trkpt lat="42.69147" lon="1.39883">
        <ele>2201.56</ele>
        <time>2015-09-05T14:11:31Z</time>
      </trkpt>
      <trkpt lat="42.69148" lon="1.39878">
        <ele>2203</ele>
        <time>2015-09-05T14:11:41Z</time>
      </trkpt>
      <trkpt lat="42.69148" lon="1.39876">
        <ele>2203.48</ele>
        <time>2015-09-05T14:11:44Z</time>
      </trkpt>
      <trkpt lat="42.69148" lon="1.39871">
        <ele>2203.96</ele>
        <time>2015-09-05T14:11:49Z</time>
      </trkpt>
      <trkpt lat="42.69148" lon="1.39863">
        <ele>2205.88</ele>
        <time>2015-09-05T14:11:57Z</time>
      </trkpt>
      <trkpt lat="42.69148" lon="1.39861">
        <ele>2206.84</ele>
        <time>2015-09-05T14:11:59Z</time>
      </trkpt>
      <trkpt lat="42.69148" lon="1.39853">
        <ele>2208.77</ele>
        <time>2015-09-05T14:12:12Z</time>
      </trkpt>
      <trkpt lat="42.69144" lon="1.39848">
        <ele>2208.77</ele>
        <time>2015-09-05T14:12:24Z</time>
      </trkpt>
      <trkpt lat="42.69141" lon="1.39843">
        <ele>2210.21</ele>
        <time>2015-09-05T14:12:35Z</time>
      </trkpt>
      <trkpt lat="42.6914" lon="1.39837">
        <ele>2211.65</ele>
        <time>2015-09-05T14:12:45Z</time>
      </trkpt>
      <trkpt lat="42.69138" lon="1.3983">
        <ele>2213.09</ele>
        <time>2015-09-05T14:12:56Z</time>
      </trkpt>
      <trkpt lat="42.69137" lon="1.39826">
        <ele>2213.57</ele>
        <time>2015-09-05T14:13:02Z</time>
      </trkpt>
      <trkpt lat="42.69134" lon="1.3982">
        <ele>2214.53</ele>
        <time>2015-09-05T14:13:13Z</time>
      </trkpt>
      <trkpt lat="42.69132" lon="1.39817">
        <ele>2215.01</ele>
        <time>2015-09-05T14:13:28Z</time>
      </trkpt>
      <trkpt lat="42.6913" lon="1.39813">
        <ele>2215.98</ele>
        <time>2015-09-05T14:13:40Z</time>
      </trkpt>
      <trkpt lat="42.69128" lon="1.39801">
        <ele>2218.86</ele>
        <time>2015-09-05T14:13:52Z</time>
      </trkpt>
      <trkpt lat="42.69128" lon="1.39795">
        <ele>2220.3</ele>
        <time>2015-09-05T14:14:03Z</time>
      </trkpt>
      <trkpt lat="42.69126" lon="1.39791">
        <ele>2221.26</ele>
        <time>2015-09-05T14:14:13Z</time>
      </trkpt>
      <trkpt lat="42.69125" lon="1.39784">
        <ele>2223.67</ele>
        <time>2015-09-05T14:14:26Z</time>
      </trkpt>
      <trkpt lat="42.69126" lon="1.39777">
        <ele>2225.59</ele>
        <time>2015-09-05T14:14:35Z</time>
      </trkpt>
      <trkpt lat="42.69126" lon="1.3977">
        <ele>2227.03</ele>
        <time>2015-09-05T14:14:46Z</time>
      </trkpt>
      <trkpt lat="42.69127" lon="1.39764">
        <ele>2228.95</ele>
        <time>2015-09-05T14:14:55Z</time>
      </trkpt>
      <trkpt lat="42.69127" lon="1.39756">
        <ele>2231.84</ele>
        <time>2015-09-05T14:15:05Z</time>
      </trkpt>
      <trkpt lat="42.69129" lon="1.39748">
        <ele>2233.28</ele>
        <time>2015-09-05T14:15:16Z</time>
      </trkpt>
      <trkpt lat="42.69132" lon="1.39738">
        <ele>2235.2</ele>
        <time>2015-09-05T14:15:30Z</time>
      </trkpt>
      <trkpt lat="42.69132" lon="1.39735">
        <ele>2235.2</ele>
        <time>2015-09-05T14:15:36Z</time>
      </trkpt>
      <trkpt lat="42.69134" lon="1.39731">
        <ele>2235.2</ele>
        <time>2015-09-05T14:15:42Z</time>
      </trkpt>
      <trkpt lat="42.69139" lon="1.3972">
        <ele>2234.24</ele>
        <time>2015-09-05T14:15:52Z</time>
      </trkpt>
      <trkpt lat="42.69143" lon="1.39708">
        <ele>2234.72</ele>
        <time>2015-09-05T14:16:05Z</time>
      </trkpt>
      <trkpt lat="42.69145" lon="1.39696">
        <ele>2235.2</ele>
        <time>2015-09-05T14:16:17Z</time>
      </trkpt>
      <trkpt lat="42.69143" lon="1.39683">
        <ele>2235.2</ele>
        <time>2015-09-05T14:16:31Z</time>
      </trkpt>
      <trkpt lat="42.69138" lon="1.39665">
        <ele>2235.2</ele>
        <time>2015-09-05T14:16:48Z</time>
      </trkpt>
      <trkpt lat="42.69141" lon="1.39652">
        <ele>2235.68</ele>
        <time>2015-09-05T14:17:03Z</time>
      </trkpt>
      <trkpt lat="42.6914" lon="1.39642">
        <ele>2235.2</ele>
        <time>2015-09-05T14:17:17Z</time>
      </trkpt>
      <trkpt lat="42.69133" lon="1.3964">
        <ele>2232.32</ele>
        <time>2015-09-05T14:17:28Z</time>
      </trkpt>
      <trkpt lat="42.69127" lon="1.39644">
        <ele>2230.88</ele>
        <time>2015-09-05T14:17:41Z</time>
      </trkpt>
      <trkpt lat="42.69128" lon="1.39647">
        <ele>2231.36</ele>
        <time>2015-09-05T14:17:53Z</time>
      </trkpt>
      <trkpt lat="42.69128" lon="1.39649">
        <ele>2231.36</ele>
        <time>2015-09-05T14:18:12Z</time>
      </trkpt>
      <trkpt lat="42.6913" lon="1.39653">
        <ele>2232.32</ele>
        <time>2015-09-05T14:18:35Z</time>
      </trkpt>
      <trkpt lat="42.69129" lon="1.39653">
        <ele>2236.64</ele>
        <time>2015-09-05T14:19:04Z</time>
      </trkpt>
      <trkpt lat="42.69131" lon="1.39654">
        <ele>2237.61</ele>
        <time>2015-09-05T14:19:43Z</time>
      </trkpt>
      <trkpt lat="42.69131" lon="1.39652">
        <ele>2239.05</ele>
        <time>2015-09-05T14:20:19Z</time>
      </trkpt>
      <trkpt lat="42.69131" lon="1.39653">
        <ele>2237.61</ele>
        <time>2015-09-05T14:20:46Z</time>
      </trkpt>
      <trkpt lat="42.6913" lon="1.39654">
        <ele>2238.09</ele>
        <time>2015-09-05T14:21:28Z</time>
      </trkpt>
      <trkpt lat="42.6913" lon="1.39654">
        <ele>2238.09</ele>
        <time>2015-09-05T14:22:05Z</time>
      </trkpt>
      <trkpt lat="42.6913" lon="1.39652">
        <ele>2239.53</ele>
        <time>2015-09-05T14:22:48Z</time>
      </trkpt>
      <trkpt lat="42.69129" lon="1.39652">
        <ele>2238.57</ele>
        <time>2015-09-05T14:23:03Z</time>
      </trkpt>
    </trkseg>
  </trk>
</gpx>